<?xml version="1.0" encoding="UTF-8" standalone="no" ?>
<gpx xmlns="http://www.topografix.com/GPX/1/1" xmlns:xsi="http://www.w3.org/2001/XMLSchema-instance" xsi:schemaLocation="http://www.topografix.com/GPX/1/1 http://www.topografix.com/GPX/1/1/gpx.xsd" version="1.1" creator="VisuGPX - https://www.visugpx.com">
  <metadata>
    <name>Randonnée des vieux ADADA</name>
    <desc><![CDATA[Boucle Pernix Gros Calan Eygalieres retour plateau des plaines Orgon]]></desc>
  </metadata>
  <trk>
    <name><![CDATA[8633387-Richard]]></name>
    <trkseg>
      <trkpt lat="43.78485" lon="4.96348">
        <ele>64</ele>
        <time>2018-05-08T14:32:31Z</time>
      </trkpt>
      <trkpt lat="43.78483" lon="4.96347">
        <ele>64</ele>
        <time>2018-05-08T14:33:31Z</time>
      </trkpt>
      <trkpt lat="43.78485" lon="4.9635">
        <ele>64</ele>
        <time>2018-05-08T14:34:31Z</time>
      </trkpt>
      <trkpt lat="43.78484" lon="4.96352">
        <ele>64</ele>
        <time>2018-05-08T14:35:31Z</time>
      </trkpt>
      <trkpt lat="43.78486" lon="4.96351">
        <ele>64</ele>
        <time>2018-05-08T14:36:31Z</time>
      </trkpt>
      <trkpt lat="43.78485" lon="4.96351">
        <ele>64</ele>
        <time>2018-05-08T14:37:31Z</time>
      </trkpt>
      <trkpt lat="43.78484" lon="4.96349">
        <ele>64</ele>
        <time>2018-05-08T14:38:31Z</time>
      </trkpt>
      <trkpt lat="43.78485" lon="4.96349">
        <ele>64</ele>
        <time>2018-05-08T14:39:31Z</time>
      </trkpt>
      <trkpt lat="43.78482" lon="4.96342">
        <ele>64</ele>
        <time>2018-05-08T14:40:31Z</time>
      </trkpt>
      <trkpt lat="43.78483" lon="4.96345">
        <ele>64</ele>
        <time>2018-05-08T14:41:31Z</time>
      </trkpt>
      <trkpt lat="43.78493" lon="4.96356">
        <ele>64</ele>
        <time>2018-05-08T14:42:31Z</time>
      </trkpt>
      <trkpt lat="43.78492" lon="4.96372">
        <ele>65</ele>
        <time>2018-05-08T14:43:31Z</time>
      </trkpt>
      <trkpt lat="43.78489" lon="4.96374">
        <ele>65</ele>
        <time>2018-05-08T14:44:31Z</time>
      </trkpt>
      <trkpt lat="43.78472" lon="4.96354">
        <ele>65</ele>
        <time>2018-05-08T14:45:31Z</time>
      </trkpt>
      <trkpt lat="43.78452" lon="4.96322">
        <ele>64</ele>
        <time>2018-05-08T14:46:31Z</time>
      </trkpt>
      <trkpt lat="43.78436" lon="4.96307">
        <ele>64</ele>
        <time>2018-05-08T14:47:31Z</time>
      </trkpt>
      <trkpt lat="43.78408" lon="4.96289">
        <ele>64</ele>
        <time>2018-05-08T14:48:31Z</time>
      </trkpt>
      <trkpt lat="43.7838" lon="4.96273">
        <ele>64</ele>
        <time>2018-05-08T14:49:31Z</time>
      </trkpt>
      <trkpt lat="43.78349" lon="4.96266">
        <ele>64</ele>
        <time>2018-05-08T14:50:31Z</time>
      </trkpt>
      <trkpt lat="43.78285" lon="4.96265">
        <ele>65</ele>
        <time>2018-05-08T14:51:31Z</time>
      </trkpt>
      <trkpt lat="43.78253" lon="4.96266">
        <ele>65</ele>
        <time>2018-05-08T14:52:31Z</time>
      </trkpt>
      <trkpt lat="43.78227" lon="4.96268">
        <ele>66</ele>
        <time>2018-05-08T14:53:31Z</time>
      </trkpt>
      <trkpt lat="43.78198" lon="4.96249">
        <ele>67</ele>
        <time>2018-05-08T14:54:31Z</time>
      </trkpt>
      <trkpt lat="43.78172" lon="4.96214">
        <ele>67</ele>
        <time>2018-05-08T14:55:31Z</time>
      </trkpt>
      <trkpt lat="43.78146" lon="4.96178">
        <ele>68</ele>
        <time>2018-05-08T14:56:31Z</time>
      </trkpt>
      <trkpt lat="43.78123" lon="4.9615">
        <ele>68</ele>
        <time>2018-05-08T14:57:31Z</time>
      </trkpt>
      <trkpt lat="43.78099" lon="4.96121">
        <ele>68</ele>
        <time>2018-05-08T14:58:31Z</time>
      </trkpt>
      <trkpt lat="43.78071" lon="4.9609">
        <ele>68</ele>
        <time>2018-05-08T14:59:31Z</time>
      </trkpt>
      <trkpt lat="43.78046" lon="4.96062">
        <ele>68</ele>
        <time>2018-05-08T15:00:31Z</time>
      </trkpt>
      <trkpt lat="43.78025" lon="4.96043">
        <ele>69</ele>
        <time>2018-05-08T15:01:31Z</time>
      </trkpt>
      <trkpt lat="43.7801" lon="4.96053">
        <ele>69</ele>
        <time>2018-05-08T15:02:31Z</time>
      </trkpt>
      <trkpt lat="43.77967" lon="4.96084">
        <ele>71</ele>
        <time>2018-05-08T15:03:31Z</time>
      </trkpt>
      <trkpt lat="43.77929" lon="4.96118">
        <ele>71</ele>
        <time>2018-05-08T15:04:31Z</time>
      </trkpt>
      <trkpt lat="43.77895" lon="4.96152">
        <ele>72</ele>
        <time>2018-05-08T15:05:31Z</time>
      </trkpt>
      <trkpt lat="43.77866" lon="4.96184">
        <ele>74</ele>
        <time>2018-05-08T15:06:31Z</time>
      </trkpt>
      <trkpt lat="43.77828" lon="4.96213">
        <ele>77</ele>
        <time>2018-05-08T15:07:31Z</time>
      </trkpt>
      <trkpt lat="43.77748" lon="4.96274">
        <ele>80</ele>
        <time>2018-05-08T15:08:31Z</time>
      </trkpt>
      <trkpt lat="43.77712" lon="4.96296">
        <ele>80</ele>
        <time>2018-05-08T15:09:31Z</time>
      </trkpt>
      <trkpt lat="43.77684" lon="4.96317">
        <ele>80</ele>
        <time>2018-05-08T15:10:31Z</time>
      </trkpt>
      <trkpt lat="43.7762" lon="4.96367">
        <ele>83</ele>
        <time>2018-05-08T15:11:31Z</time>
      </trkpt>
      <trkpt lat="43.77605" lon="4.96341">
        <ele>83</ele>
        <time>2018-05-08T15:12:31Z</time>
      </trkpt>
      <trkpt lat="43.77589" lon="4.96301">
        <ele>82</ele>
        <time>2018-05-08T15:13:31Z</time>
      </trkpt>
      <trkpt lat="43.77574" lon="4.96267">
        <ele>82</ele>
        <time>2018-05-08T15:14:31Z</time>
      </trkpt>
      <trkpt lat="43.77565" lon="4.96261">
        <ele>83</ele>
        <time>2018-05-08T15:15:31Z</time>
      </trkpt>
      <trkpt lat="43.77545" lon="4.96278">
        <ele>84</ele>
        <time>2018-05-08T15:16:31Z</time>
      </trkpt>
      <trkpt lat="43.77519" lon="4.96298">
        <ele>85</ele>
        <time>2018-05-08T15:17:31Z</time>
      </trkpt>
      <trkpt lat="43.77491" lon="4.96318">
        <ele>87</ele>
        <time>2018-05-08T15:18:31Z</time>
      </trkpt>
      <trkpt lat="43.7747" lon="4.963">
        <ele>88</ele>
        <time>2018-05-08T15:19:31Z</time>
      </trkpt>
      <trkpt lat="43.77449" lon="4.96254">
        <ele>88</ele>
        <time>2018-05-08T15:20:31Z</time>
      </trkpt>
      <trkpt lat="43.77431" lon="4.96217">
        <ele>88</ele>
        <time>2018-05-08T15:21:31Z</time>
      </trkpt>
      <trkpt lat="43.77421" lon="4.96194">
        <ele>88</ele>
        <time>2018-05-08T15:22:31Z</time>
      </trkpt>
      <trkpt lat="43.77414" lon="4.96179">
        <ele>88</ele>
        <time>2018-05-08T15:23:31Z</time>
      </trkpt>
      <trkpt lat="43.77413" lon="4.96177">
        <ele>88</ele>
        <time>2018-05-08T15:24:31Z</time>
      </trkpt>
      <trkpt lat="43.77393" lon="4.96145">
        <ele>86</ele>
        <time>2018-05-08T15:25:31Z</time>
      </trkpt>
      <trkpt lat="43.77378" lon="4.96117">
        <ele>85</ele>
        <time>2018-05-08T15:26:31Z</time>
      </trkpt>
      <trkpt lat="43.77364" lon="4.96096">
        <ele>84</ele>
        <time>2018-05-08T15:27:31Z</time>
      </trkpt>
      <trkpt lat="43.77345" lon="4.96064">
        <ele>83</ele>
        <time>2018-05-08T15:28:31Z</time>
      </trkpt>
      <trkpt lat="43.77326" lon="4.96037">
        <ele>83</ele>
        <time>2018-05-08T15:29:31Z</time>
      </trkpt>
      <trkpt lat="43.77298" lon="4.96011">
        <ele>82</ele>
        <time>2018-05-08T15:30:31Z</time>
      </trkpt>
      <trkpt lat="43.77276" lon="4.95991">
        <ele>82</ele>
        <time>2018-05-08T15:31:31Z</time>
      </trkpt>
      <trkpt lat="43.77268" lon="4.95981">
        <ele>82</ele>
        <time>2018-05-08T15:32:31Z</time>
      </trkpt>
      <trkpt lat="43.77266" lon="4.95981">
        <ele>82</ele>
        <time>2018-05-08T15:33:31Z</time>
      </trkpt>
      <trkpt lat="43.77265" lon="4.95977">
        <ele>82</ele>
        <time>2018-05-08T15:34:31Z</time>
      </trkpt>
      <trkpt lat="43.77264" lon="4.95974">
        <ele>82</ele>
        <time>2018-05-08T15:35:31Z</time>
      </trkpt>
      <trkpt lat="43.77263" lon="4.95974">
        <ele>82</ele>
        <time>2018-05-08T15:36:31Z</time>
      </trkpt>
      <trkpt lat="43.77261" lon="4.95972">
        <ele>82</ele>
        <time>2018-05-08T15:37:31Z</time>
      </trkpt>
      <trkpt lat="43.77241" lon="4.95936">
        <ele>81</ele>
        <time>2018-05-08T15:38:31Z</time>
      </trkpt>
      <trkpt lat="43.77238" lon="4.95929">
        <ele>81</ele>
        <time>2018-05-08T15:39:31Z</time>
      </trkpt>
      <trkpt lat="43.77224" lon="4.95931">
        <ele>81</ele>
        <time>2018-05-08T15:40:31Z</time>
      </trkpt>
      <trkpt lat="43.77156" lon="4.95942">
        <ele>82</ele>
        <time>2018-05-08T15:41:31Z</time>
      </trkpt>
      <trkpt lat="43.77082" lon="4.95988">
        <ele>84</ele>
        <time>2018-05-08T15:42:31Z</time>
      </trkpt>
      <trkpt lat="43.77014" lon="4.96042">
        <ele>86</ele>
        <time>2018-05-08T15:43:31Z</time>
      </trkpt>
      <trkpt lat="43.76947" lon="4.96057">
        <ele>87</ele>
        <time>2018-05-08T15:44:31Z</time>
      </trkpt>
      <trkpt lat="43.7689" lon="4.96102">
        <ele>89</ele>
        <time>2018-05-08T15:45:31Z</time>
      </trkpt>
      <trkpt lat="43.76828" lon="4.96153">
        <ele>89</ele>
        <time>2018-05-08T15:46:31Z</time>
      </trkpt>
      <trkpt lat="43.7678" lon="4.96213">
        <ele>91</ele>
        <time>2018-05-08T15:47:31Z</time>
      </trkpt>
      <trkpt lat="43.76745" lon="4.96311">
        <ele>94</ele>
        <time>2018-05-08T15:48:31Z</time>
      </trkpt>
      <trkpt lat="43.76694" lon="4.96377">
        <ele>96</ele>
        <time>2018-05-08T15:49:31Z</time>
      </trkpt>
      <trkpt lat="43.76638" lon="4.96437">
        <ele>95</ele>
        <time>2018-05-08T15:50:31Z</time>
      </trkpt>
      <trkpt lat="43.76567" lon="4.96495">
        <ele>93</ele>
        <time>2018-05-08T15:51:31Z</time>
      </trkpt>
      <trkpt lat="43.76489" lon="4.96552">
        <ele>96</ele>
        <time>2018-05-08T15:52:31Z</time>
      </trkpt>
      <trkpt lat="43.76412" lon="4.96609">
        <ele>97</ele>
        <time>2018-05-08T15:53:31Z</time>
      </trkpt>
      <trkpt lat="43.76338" lon="4.96662">
        <ele>100</ele>
        <time>2018-05-08T15:54:31Z</time>
      </trkpt>
      <trkpt lat="43.76337" lon="4.96714">
        <ele>100</ele>
        <time>2018-05-08T15:55:31Z</time>
      </trkpt>
      <trkpt lat="43.76347" lon="4.96763">
        <ele>101</ele>
        <time>2018-05-08T15:56:31Z</time>
      </trkpt>
      <trkpt lat="43.76353" lon="4.96806">
        <ele>101</ele>
        <time>2018-05-08T15:57:31Z</time>
      </trkpt>
      <trkpt lat="43.76365" lon="4.96902">
        <ele>101</ele>
        <time>2018-05-08T15:58:31Z</time>
      </trkpt>
      <trkpt lat="43.76372" lon="4.96948">
        <ele>101</ele>
        <time>2018-05-08T15:59:31Z</time>
      </trkpt>
      <trkpt lat="43.7638" lon="4.96997">
        <ele>101</ele>
        <time>2018-05-08T16:00:31Z</time>
      </trkpt>
      <trkpt lat="43.76386" lon="4.97041">
        <ele>101</ele>
        <time>2018-05-08T16:01:31Z</time>
      </trkpt>
      <trkpt lat="43.76403" lon="4.97079">
        <ele>100</ele>
        <time>2018-05-08T16:02:31Z</time>
      </trkpt>
      <trkpt lat="43.76429" lon="4.97112">
        <ele>100</ele>
        <time>2018-05-08T16:03:31Z</time>
      </trkpt>
      <trkpt lat="43.76474" lon="4.97187">
        <ele>101</ele>
        <time>2018-05-08T16:04:31Z</time>
      </trkpt>
      <trkpt lat="43.76529" lon="4.97261">
        <ele>104</ele>
        <time>2018-05-08T16:05:31Z</time>
      </trkpt>
      <trkpt lat="43.76584" lon="4.97299">
        <ele>106</ele>
        <time>2018-05-08T16:06:31Z</time>
      </trkpt>
      <trkpt lat="43.76632" lon="4.97339">
        <ele>107</ele>
        <time>2018-05-08T16:07:31Z</time>
      </trkpt>
      <trkpt lat="43.76666" lon="4.97366">
        <ele>108</ele>
        <time>2018-05-08T16:08:31Z</time>
      </trkpt>
      <trkpt lat="43.76686" lon="4.97407">
        <ele>109</ele>
        <time>2018-05-08T16:09:31Z</time>
      </trkpt>
      <trkpt lat="43.76734" lon="4.97466">
        <ele>110</ele>
        <time>2018-05-08T16:10:31Z</time>
      </trkpt>
      <trkpt lat="43.76745" lon="4.97506">
        <ele>111</ele>
        <time>2018-05-08T16:11:31Z</time>
      </trkpt>
      <trkpt lat="43.76765" lon="4.97551">
        <ele>113</ele>
        <time>2018-05-08T16:12:31Z</time>
      </trkpt>
      <trkpt lat="43.76774" lon="4.9758">
        <ele>114</ele>
        <time>2018-05-08T16:13:31Z</time>
      </trkpt>
      <trkpt lat="43.76789" lon="4.97607">
        <ele>115</ele>
        <time>2018-05-08T16:14:31Z</time>
      </trkpt>
      <trkpt lat="43.76824" lon="4.97682">
        <ele>117</ele>
        <time>2018-05-08T16:15:31Z</time>
      </trkpt>
      <trkpt lat="43.76835" lon="4.97715">
        <ele>118</ele>
        <time>2018-05-08T16:16:31Z</time>
      </trkpt>
      <trkpt lat="43.76847" lon="4.97754">
        <ele>119</ele>
        <time>2018-05-08T16:17:31Z</time>
      </trkpt>
      <trkpt lat="43.76864" lon="4.97789">
        <ele>121</ele>
        <time>2018-05-08T16:18:31Z</time>
      </trkpt>
      <trkpt lat="43.76883" lon="4.97829">
        <ele>122</ele>
        <time>2018-05-08T16:19:31Z</time>
      </trkpt>
      <trkpt lat="43.769" lon="4.97862">
        <ele>123</ele>
        <time>2018-05-08T16:20:31Z</time>
      </trkpt>
      <trkpt lat="43.76921" lon="4.97896">
        <ele>124</ele>
        <time>2018-05-08T16:21:31Z</time>
      </trkpt>
      <trkpt lat="43.7694" lon="4.97918">
        <ele>126</ele>
        <time>2018-05-08T16:22:31Z</time>
      </trkpt>
      <trkpt lat="43.76958" lon="4.97942">
        <ele>126</ele>
        <time>2018-05-08T16:23:31Z</time>
      </trkpt>
      <trkpt lat="43.7698" lon="4.97973">
        <ele>125</ele>
        <time>2018-05-08T16:24:31Z</time>
      </trkpt>
      <trkpt lat="43.76995" lon="4.97992">
        <ele>124</ele>
        <time>2018-05-08T16:25:31Z</time>
      </trkpt>
      <trkpt lat="43.77011" lon="4.98015">
        <ele>124</ele>
        <time>2018-05-08T16:26:31Z</time>
      </trkpt>
      <trkpt lat="43.77031" lon="4.98044">
        <ele>125</ele>
        <time>2018-05-08T16:27:31Z</time>
      </trkpt>
      <trkpt lat="43.77048" lon="4.98069">
        <ele>124</ele>
        <time>2018-05-08T16:28:31Z</time>
      </trkpt>
      <trkpt lat="43.77061" lon="4.98102">
        <ele>123</ele>
        <time>2018-05-08T16:29:31Z</time>
      </trkpt>
      <trkpt lat="43.77093" lon="4.98155">
        <ele>123</ele>
        <time>2018-05-08T16:30:31Z</time>
      </trkpt>
      <trkpt lat="43.77115" lon="4.98189">
        <ele>123</ele>
        <time>2018-05-08T16:31:31Z</time>
      </trkpt>
      <trkpt lat="43.77135" lon="4.98218">
        <ele>124</ele>
        <time>2018-05-08T16:32:31Z</time>
      </trkpt>
      <trkpt lat="43.77151" lon="4.98241">
        <ele>126</ele>
        <time>2018-05-08T16:33:31Z</time>
      </trkpt>
      <trkpt lat="43.77176" lon="4.98273">
        <ele>125</ele>
        <time>2018-05-08T16:34:31Z</time>
      </trkpt>
      <trkpt lat="43.7718" lon="4.98273">
        <ele>125</ele>
        <time>2018-05-08T16:35:31Z</time>
      </trkpt>
      <trkpt lat="43.77191" lon="4.98283">
        <ele>124</ele>
        <time>2018-05-08T16:36:31Z</time>
      </trkpt>
      <trkpt lat="43.77211" lon="4.98297">
        <ele>123</ele>
        <time>2018-05-08T16:37:31Z</time>
      </trkpt>
      <trkpt lat="43.77235" lon="4.9832">
        <ele>122</ele>
        <time>2018-05-08T16:38:31Z</time>
      </trkpt>
      <trkpt lat="43.7726" lon="4.98336">
        <ele>121</ele>
        <time>2018-05-08T16:39:31Z</time>
      </trkpt>
      <trkpt lat="43.77282" lon="4.98349">
        <ele>121</ele>
        <time>2018-05-08T16:40:31Z</time>
      </trkpt>
      <trkpt lat="43.77315" lon="4.98372">
        <ele>120</ele>
        <time>2018-05-08T16:41:31Z</time>
      </trkpt>
      <trkpt lat="43.77349" lon="4.98415">
        <ele>118</ele>
        <time>2018-05-08T16:42:31Z</time>
      </trkpt>
      <trkpt lat="43.77374" lon="4.98455">
        <ele>116</ele>
        <time>2018-05-08T16:43:31Z</time>
      </trkpt>
      <trkpt lat="43.77399" lon="4.9849">
        <ele>115</ele>
        <time>2018-05-08T16:44:31Z</time>
      </trkpt>
      <trkpt lat="43.7743" lon="4.98536">
        <ele>114</ele>
        <time>2018-05-08T16:45:31Z</time>
      </trkpt>
      <trkpt lat="43.77461" lon="4.98573">
        <ele>113</ele>
        <time>2018-05-08T16:46:31Z</time>
      </trkpt>
      <trkpt lat="43.77502" lon="4.98629">
        <ele>114</ele>
        <time>2018-05-08T16:47:31Z</time>
      </trkpt>
      <trkpt lat="43.77536" lon="4.98684">
        <ele>114</ele>
        <time>2018-05-08T16:48:31Z</time>
      </trkpt>
      <trkpt lat="43.77575" lon="4.98735">
        <ele>112</ele>
        <time>2018-05-08T16:49:31Z</time>
      </trkpt>
      <trkpt lat="43.77603" lon="4.98788">
        <ele>111</ele>
        <time>2018-05-08T16:50:31Z</time>
      </trkpt>
      <trkpt lat="43.7764" lon="4.98866">
        <ele>109</ele>
        <time>2018-05-08T16:51:31Z</time>
      </trkpt>
      <trkpt lat="43.77667" lon="4.98923">
        <ele>107</ele>
        <time>2018-05-08T16:52:31Z</time>
      </trkpt>
      <trkpt lat="43.7768" lon="4.98966">
        <ele>104</ele>
        <time>2018-05-08T16:53:31Z</time>
      </trkpt>
      <trkpt lat="43.77673" lon="4.99033">
        <ele>101</ele>
        <time>2018-05-08T16:54:31Z</time>
      </trkpt>
      <trkpt lat="43.77674" lon="4.99106">
        <ele>98</ele>
        <time>2018-05-08T16:55:31Z</time>
      </trkpt>
      <trkpt lat="43.77692" lon="4.99192">
        <ele>97</ele>
        <time>2018-05-08T16:56:31Z</time>
      </trkpt>
      <trkpt lat="43.7771" lon="4.99279">
        <ele>98</ele>
        <time>2018-05-08T16:57:31Z</time>
      </trkpt>
      <trkpt lat="43.77723" lon="4.99382">
        <ele>99</ele>
        <time>2018-05-08T16:58:31Z</time>
      </trkpt>
      <trkpt lat="43.7776" lon="4.9948">
        <ele>100</ele>
        <time>2018-05-08T16:59:31Z</time>
      </trkpt>
      <trkpt lat="43.77804" lon="4.99572">
        <ele>100</ele>
        <time>2018-05-08T17:00:31Z</time>
      </trkpt>
      <trkpt lat="43.77859" lon="4.99696">
        <ele>101</ele>
        <time>2018-05-08T17:01:31Z</time>
      </trkpt>
      <trkpt lat="43.77898" lon="4.99774">
        <ele>102</ele>
        <time>2018-05-08T17:02:31Z</time>
      </trkpt>
      <trkpt lat="43.77939" lon="4.9986">
        <ele>102</ele>
        <time>2018-05-08T17:03:31Z</time>
      </trkpt>
      <trkpt lat="43.77941" lon="4.99877">
        <ele>102</ele>
        <time>2018-05-08T17:04:31Z</time>
      </trkpt>
      <trkpt lat="43.77878" lon="4.99934">
        <ele>104</ele>
        <time>2018-05-08T17:05:31Z</time>
      </trkpt>
      <trkpt lat="43.77728" lon="5.0006">
        <ele>108</ele>
        <time>2018-05-08T17:06:31Z</time>
      </trkpt>
      <trkpt lat="43.77701" lon="5.00084">
        <ele>109</ele>
        <time>2018-05-08T17:07:31Z</time>
      </trkpt>
      <trkpt lat="43.77634" lon="5.00143">
        <ele>111</ele>
        <time>2018-05-08T17:08:31Z</time>
      </trkpt>
      <trkpt lat="43.77608" lon="5.00165">
        <ele>111</ele>
        <time>2018-05-08T17:09:31Z</time>
      </trkpt>
      <trkpt lat="43.77574" lon="5.00194">
        <ele>113</ele>
        <time>2018-05-08T17:10:31Z</time>
      </trkpt>
      <trkpt lat="43.77572" lon="5.00199">
        <ele>113</ele>
        <time>2018-05-08T17:11:31Z</time>
      </trkpt>
      <trkpt lat="43.77572" lon="5.002">
        <ele>114</ele>
        <time>2018-05-08T17:12:31Z</time>
      </trkpt>
      <trkpt lat="43.77578" lon="5.00212">
        <ele>113</ele>
        <time>2018-05-08T17:13:31Z</time>
      </trkpt>
      <trkpt lat="43.7758" lon="5.00218">
        <ele>113</ele>
        <time>2018-05-08T17:14:31Z</time>
      </trkpt>
      <trkpt lat="43.77578" lon="5.00223">
        <ele>114</ele>
        <time>2018-05-08T17:15:31Z</time>
      </trkpt>
      <trkpt lat="43.77567" lon="5.00233">
        <ele>114</ele>
        <time>2018-05-08T17:16:31Z</time>
      </trkpt>
      <trkpt lat="43.77557" lon="5.00236">
        <ele>115</ele>
        <time>2018-05-08T17:17:31Z</time>
      </trkpt>
      <trkpt lat="43.77504" lon="5.00271">
        <ele>118</ele>
        <time>2018-05-08T17:18:31Z</time>
      </trkpt>
      <trkpt lat="43.77459" lon="5.00308">
        <ele>120</ele>
        <time>2018-05-08T17:19:31Z</time>
      </trkpt>
      <trkpt lat="43.77414" lon="5.00345">
        <ele>123</ele>
        <time>2018-05-08T17:20:31Z</time>
      </trkpt>
      <trkpt lat="43.77361" lon="5.00379">
        <ele>125</ele>
        <time>2018-05-08T17:21:31Z</time>
      </trkpt>
      <trkpt lat="43.7731" lon="5.00402">
        <ele>126</ele>
        <time>2018-05-08T17:22:31Z</time>
      </trkpt>
      <trkpt lat="43.77267" lon="5.00433">
        <ele>129</ele>
        <time>2018-05-08T17:23:31Z</time>
      </trkpt>
      <trkpt lat="43.77219" lon="5.00461">
        <ele>132</ele>
        <time>2018-05-08T17:24:31Z</time>
      </trkpt>
      <trkpt lat="43.77175" lon="5.00481">
        <ele>133</ele>
        <time>2018-05-08T17:25:31Z</time>
      </trkpt>
      <trkpt lat="43.77149" lon="5.00501">
        <ele>134</ele>
        <time>2018-05-08T17:26:31Z</time>
      </trkpt>
      <trkpt lat="43.7712" lon="5.00517">
        <ele>135</ele>
        <time>2018-05-08T17:27:31Z</time>
      </trkpt>
      <trkpt lat="43.77116" lon="5.00522">
        <ele>136</ele>
        <time>2018-05-08T17:28:31Z</time>
      </trkpt>
      <trkpt lat="43.77101" lon="5.00549">
        <ele>137</ele>
        <time>2018-05-08T17:29:31Z</time>
      </trkpt>
      <trkpt lat="43.77086" lon="5.00572">
        <ele>138</ele>
        <time>2018-05-08T17:30:31Z</time>
      </trkpt>
      <trkpt lat="43.7707" lon="5.00588">
        <ele>139</ele>
        <time>2018-05-08T17:31:31Z</time>
      </trkpt>
      <trkpt lat="43.77065" lon="5.00591">
        <ele>139</ele>
        <time>2018-05-08T17:32:31Z</time>
      </trkpt>
      <trkpt lat="43.77065" lon="5.00593">
        <ele>139</ele>
        <time>2018-05-08T17:33:31Z</time>
      </trkpt>
      <trkpt lat="43.77055" lon="5.006">
        <ele>140</ele>
        <time>2018-05-08T17:34:31Z</time>
      </trkpt>
      <trkpt lat="43.77047" lon="5.006">
        <ele>140</ele>
        <time>2018-05-08T17:35:31Z</time>
      </trkpt>
      <trkpt lat="43.77033" lon="5.00607">
        <ele>140</ele>
        <time>2018-05-08T17:36:31Z</time>
      </trkpt>
      <trkpt lat="43.77017" lon="5.00625">
        <ele>139</ele>
        <time>2018-05-08T17:37:31Z</time>
      </trkpt>
      <trkpt lat="43.77017" lon="5.00627">
        <ele>139</ele>
        <time>2018-05-08T17:38:31Z</time>
      </trkpt>
      <trkpt lat="43.77016" lon="5.00628">
        <ele>139</ele>
        <time>2018-05-08T17:39:31Z</time>
      </trkpt>
      <trkpt lat="43.77018" lon="5.00631">
        <ele>139</ele>
        <time>2018-05-08T17:40:31Z</time>
      </trkpt>
      <trkpt lat="43.77018" lon="5.00629">
        <ele>139</ele>
        <time>2018-05-08T17:41:31Z</time>
      </trkpt>
      <trkpt lat="43.77018" lon="5.00636">
        <ele>140</ele>
        <time>2018-05-08T17:42:31Z</time>
      </trkpt>
      <trkpt lat="43.77012" lon="5.00658">
        <ele>139</ele>
        <time>2018-05-08T17:43:31Z</time>
      </trkpt>
      <trkpt lat="43.76997" lon="5.00687">
        <ele>139</ele>
        <time>2018-05-08T17:44:31Z</time>
      </trkpt>
      <trkpt lat="43.76987" lon="5.00712">
        <ele>142</ele>
        <time>2018-05-08T17:45:31Z</time>
      </trkpt>
      <trkpt lat="43.76972" lon="5.00737">
        <ele>145</ele>
        <time>2018-05-08T17:46:31Z</time>
      </trkpt>
      <trkpt lat="43.76951" lon="5.00772">
        <ele>148</ele>
        <time>2018-05-08T17:47:31Z</time>
      </trkpt>
      <trkpt lat="43.76933" lon="5.00795">
        <ele>148</ele>
        <time>2018-05-08T17:48:31Z</time>
      </trkpt>
      <trkpt lat="43.7691" lon="5.00807">
        <ele>148</ele>
        <time>2018-05-08T17:49:31Z</time>
      </trkpt>
      <trkpt lat="43.76891" lon="5.00828">
        <ele>147</ele>
        <time>2018-05-08T17:50:31Z</time>
      </trkpt>
      <trkpt lat="43.76867" lon="5.00854">
        <ele>149</ele>
        <time>2018-05-08T17:51:31Z</time>
      </trkpt>
      <trkpt lat="43.7684" lon="5.00876">
        <ele>149</ele>
        <time>2018-05-08T17:52:31Z</time>
      </trkpt>
      <trkpt lat="43.76815" lon="5.00892">
        <ele>149</ele>
        <time>2018-05-08T17:53:31Z</time>
      </trkpt>
      <trkpt lat="43.76795" lon="5.00918">
        <ele>149</ele>
        <time>2018-05-08T17:54:31Z</time>
      </trkpt>
      <trkpt lat="43.76776" lon="5.00947">
        <ele>151</ele>
        <time>2018-05-08T17:55:31Z</time>
      </trkpt>
      <trkpt lat="43.76759" lon="5.00959">
        <ele>150</ele>
        <time>2018-05-08T17:56:31Z</time>
      </trkpt>
      <trkpt lat="43.76751" lon="5.0099">
        <ele>150</ele>
        <time>2018-05-08T17:57:31Z</time>
      </trkpt>
      <trkpt lat="43.7675" lon="5.01038">
        <ele>150</ele>
        <time>2018-05-08T17:58:31Z</time>
      </trkpt>
      <trkpt lat="43.76742" lon="5.01074">
        <ele>152</ele>
        <time>2018-05-08T17:59:31Z</time>
      </trkpt>
      <trkpt lat="43.76716" lon="5.01134">
        <ele>156</ele>
        <time>2018-05-08T18:00:31Z</time>
      </trkpt>
      <trkpt lat="43.76673" lon="5.01148">
        <ele>156</ele>
        <time>2018-05-08T18:01:31Z</time>
      </trkpt>
      <trkpt lat="43.76609" lon="5.01113">
        <ele>159</ele>
        <time>2018-05-08T18:02:31Z</time>
      </trkpt>
      <trkpt lat="43.76552" lon="5.01067">
        <ele>161</ele>
        <time>2018-05-08T18:03:31Z</time>
      </trkpt>
      <trkpt lat="43.76519" lon="5.00982">
        <ele>165</ele>
        <time>2018-05-08T18:04:31Z</time>
      </trkpt>
      <trkpt lat="43.76493" lon="5.00893">
        <ele>170</ele>
        <time>2018-05-08T18:05:31Z</time>
      </trkpt>
      <trkpt lat="43.76458" lon="5.00827">
        <ele>174</ele>
        <time>2018-05-08T18:06:31Z</time>
      </trkpt>
      <trkpt lat="43.76397" lon="5.00778">
        <ele>175</ele>
        <time>2018-05-08T18:07:31Z</time>
      </trkpt>
      <trkpt lat="43.7635" lon="5.00741">
        <ele>177</ele>
        <time>2018-05-08T18:08:31Z</time>
      </trkpt>
      <trkpt lat="43.76312" lon="5.00697">
        <ele>182</ele>
        <time>2018-05-08T18:09:31Z</time>
      </trkpt>
      <trkpt lat="43.76268" lon="5.00659">
        <ele>186</ele>
        <time>2018-05-08T18:10:31Z</time>
      </trkpt>
      <trkpt lat="43.76222" lon="5.00672">
        <ele>184</ele>
        <time>2018-05-08T18:11:31Z</time>
      </trkpt>
      <trkpt lat="43.76187" lon="5.00682">
        <ele>186</ele>
        <time>2018-05-08T18:12:31Z</time>
      </trkpt>
      <trkpt lat="43.76158" lon="5.00657">
        <ele>186</ele>
        <time>2018-05-08T18:13:31Z</time>
      </trkpt>
      <trkpt lat="43.76129" lon="5.00639">
        <ele>191</ele>
        <time>2018-05-08T18:14:31Z</time>
      </trkpt>
      <trkpt lat="43.76108" lon="5.0064">
        <ele>192</ele>
        <time>2018-05-08T18:15:31Z</time>
      </trkpt>
      <trkpt lat="43.7608" lon="5.00675">
        <ele>191</ele>
        <time>2018-05-08T18:16:31Z</time>
      </trkpt>
      <trkpt lat="43.7604" lon="5.00724">
        <ele>198</ele>
        <time>2018-05-08T18:17:31Z</time>
      </trkpt>
      <trkpt lat="43.76001" lon="5.00721">
        <ele>200</ele>
        <time>2018-05-08T18:18:31Z</time>
      </trkpt>
      <trkpt lat="43.75972" lon="5.00683">
        <ele>203</ele>
        <time>2018-05-08T18:19:31Z</time>
      </trkpt>
      <trkpt lat="43.7597" lon="5.00679">
        <ele>203</ele>
        <time>2018-05-08T18:20:31Z</time>
      </trkpt>
      <trkpt lat="43.75967" lon="5.0067">
        <ele>203</ele>
        <time>2018-05-08T18:21:31Z</time>
      </trkpt>
      <trkpt lat="43.75964" lon="5.00666">
        <ele>204</ele>
        <time>2018-05-08T18:22:31Z</time>
      </trkpt>
      <trkpt lat="43.75937" lon="5.00669">
        <ele>207</ele>
        <time>2018-05-08T18:23:31Z</time>
      </trkpt>
      <trkpt lat="43.7589" lon="5.00702">
        <ele>218</ele>
        <time>2018-05-08T18:24:31Z</time>
      </trkpt>
      <trkpt lat="43.75887" lon="5.00706">
        <ele>219</ele>
        <time>2018-05-08T18:25:31Z</time>
      </trkpt>
      <trkpt lat="43.75884" lon="5.00743">
        <ele>219</ele>
        <time>2018-05-08T18:26:31Z</time>
      </trkpt>
      <trkpt lat="43.75854" lon="5.00778">
        <ele>228</ele>
        <time>2018-05-08T18:27:31Z</time>
      </trkpt>
      <trkpt lat="43.75832" lon="5.00809">
        <ele>232</ele>
        <time>2018-05-08T18:28:31Z</time>
      </trkpt>
      <trkpt lat="43.75802" lon="5.00802">
        <ele>234</ele>
        <time>2018-05-08T18:29:31Z</time>
      </trkpt>
      <trkpt lat="43.75793" lon="5.00801">
        <ele>235</ele>
        <time>2018-05-08T18:30:31Z</time>
      </trkpt>
      <trkpt lat="43.75791" lon="5.00801">
        <ele>235</ele>
        <time>2018-05-08T18:31:31Z</time>
      </trkpt>
      <trkpt lat="43.75787" lon="5.00803">
        <ele>236</ele>
        <time>2018-05-08T18:32:31Z</time>
      </trkpt>
      <trkpt lat="43.75785" lon="5.00805">
        <ele>236</ele>
        <time>2018-05-08T18:33:31Z</time>
      </trkpt>
      <trkpt lat="43.75782" lon="5.00817">
        <ele>235</ele>
        <time>2018-05-08T18:34:31Z</time>
      </trkpt>
      <trkpt lat="43.75759" lon="5.00847">
        <ele>237</ele>
        <time>2018-05-08T18:35:31Z</time>
      </trkpt>
      <trkpt lat="43.75702" lon="5.00876">
        <ele>243</ele>
        <time>2018-05-08T18:36:31Z</time>
      </trkpt>
      <trkpt lat="43.75668" lon="5.00873">
        <ele>243</ele>
        <time>2018-05-08T18:37:31Z</time>
      </trkpt>
      <trkpt lat="43.75601" lon="5.00846">
        <ele>244</ele>
        <time>2018-05-08T18:38:31Z</time>
      </trkpt>
      <trkpt lat="43.75561" lon="5.0084">
        <ele>247</ele>
        <time>2018-05-08T18:39:31Z</time>
      </trkpt>
      <trkpt lat="43.75516" lon="5.00789">
        <ele>254</ele>
        <time>2018-05-08T18:40:31Z</time>
      </trkpt>
      <trkpt lat="43.7546" lon="5.0081">
        <ele>255</ele>
        <time>2018-05-08T18:41:31Z</time>
      </trkpt>
      <trkpt lat="43.75442" lon="5.00817">
        <ele>255</ele>
        <time>2018-05-08T18:42:31Z</time>
      </trkpt>
      <trkpt lat="43.75415" lon="5.00802">
        <ele>256</ele>
        <time>2018-05-08T18:43:31Z</time>
      </trkpt>
      <trkpt lat="43.75401" lon="5.00731">
        <ele>260</ele>
        <time>2018-05-08T18:44:31Z</time>
      </trkpt>
      <trkpt lat="43.75398" lon="5.00722">
        <ele>261</ele>
        <time>2018-05-08T18:45:31Z</time>
      </trkpt>
      <trkpt lat="43.75396" lon="5.00718">
        <ele>262</ele>
        <time>2018-05-08T18:46:31Z</time>
      </trkpt>
      <trkpt lat="43.75393" lon="5.00715">
        <ele>262</ele>
        <time>2018-05-08T18:47:31Z</time>
      </trkpt>
      <trkpt lat="43.75371" lon="5.00715">
        <ele>265</ele>
        <time>2018-05-08T18:48:31Z</time>
      </trkpt>
      <trkpt lat="43.75336" lon="5.00684">
        <ele>267</ele>
        <time>2018-05-08T18:49:31Z</time>
      </trkpt>
      <trkpt lat="43.75334" lon="5.0068">
        <ele>267</ele>
        <time>2018-05-08T18:50:31Z</time>
      </trkpt>
      <trkpt lat="43.75332" lon="5.00676">
        <ele>267</ele>
        <time>2018-05-08T18:51:31Z</time>
      </trkpt>
      <trkpt lat="43.75332" lon="5.00672">
        <ele>267</ele>
        <time>2018-05-08T18:52:31Z</time>
      </trkpt>
      <trkpt lat="43.75331" lon="5.00669">
        <ele>267</ele>
        <time>2018-05-08T18:53:31Z</time>
      </trkpt>
      <trkpt lat="43.75337" lon="5.00653">
        <ele>267</ele>
        <time>2018-05-08T18:54:31Z</time>
      </trkpt>
      <trkpt lat="43.75341" lon="5.00606">
        <ele>269</ele>
        <time>2018-05-08T18:55:31Z</time>
      </trkpt>
      <trkpt lat="43.75305" lon="5.00557">
        <ele>273</ele>
        <time>2018-05-08T18:56:31Z</time>
      </trkpt>
      <trkpt lat="43.75266" lon="5.00513">
        <ele>277</ele>
        <time>2018-05-08T18:57:31Z</time>
      </trkpt>
      <trkpt lat="43.7524" lon="5.00531">
        <ele>278</ele>
        <time>2018-05-08T18:58:31Z</time>
      </trkpt>
      <trkpt lat="43.75228" lon="5.0057">
        <ele>278</ele>
        <time>2018-05-08T18:59:31Z</time>
      </trkpt>
      <trkpt lat="43.75173" lon="5.00588">
        <ele>279</ele>
        <time>2018-05-08T19:00:31Z</time>
      </trkpt>
      <trkpt lat="43.75125" lon="5.0062">
        <ele>283</ele>
        <time>2018-05-08T19:01:31Z</time>
      </trkpt>
      <trkpt lat="43.75093" lon="5.0062">
        <ele>284</ele>
        <time>2018-05-08T19:02:31Z</time>
      </trkpt>
      <trkpt lat="43.75048" lon="5.00587">
        <ele>285</ele>
        <time>2018-05-08T19:03:31Z</time>
      </trkpt>
      <trkpt lat="43.75006" lon="5.00601">
        <ele>288</ele>
        <time>2018-05-08T19:04:31Z</time>
      </trkpt>
      <trkpt lat="43.74906" lon="5.00622">
        <ele>292</ele>
        <time>2018-05-08T19:05:31Z</time>
      </trkpt>
      <trkpt lat="43.74862" lon="5.00624">
        <ele>293</ele>
        <time>2018-05-08T19:06:31Z</time>
      </trkpt>
      <trkpt lat="43.7482" lon="5.00618">
        <ele>295</ele>
        <time>2018-05-08T19:07:31Z</time>
      </trkpt>
      <trkpt lat="43.74784" lon="5.00657">
        <ele>295</ele>
        <time>2018-05-08T19:08:31Z</time>
      </trkpt>
      <trkpt lat="43.74747" lon="5.00664">
        <ele>296</ele>
        <time>2018-05-08T19:09:31Z</time>
      </trkpt>
      <trkpt lat="43.74718" lon="5.00663">
        <ele>297</ele>
        <time>2018-05-08T19:10:31Z</time>
      </trkpt>
      <trkpt lat="43.74692" lon="5.00659">
        <ele>297</ele>
        <time>2018-05-08T19:11:31Z</time>
      </trkpt>
      <trkpt lat="43.74662" lon="5.00658">
        <ele>298</ele>
        <time>2018-05-08T19:12:31Z</time>
      </trkpt>
      <trkpt lat="43.74631" lon="5.0066">
        <ele>298</ele>
        <time>2018-05-08T19:13:31Z</time>
      </trkpt>
      <trkpt lat="43.74599" lon="5.00663">
        <ele>298</ele>
        <time>2018-05-08T19:14:31Z</time>
      </trkpt>
      <trkpt lat="43.7457" lon="5.0068">
        <ele>299</ele>
        <time>2018-05-08T19:15:31Z</time>
      </trkpt>
      <trkpt lat="43.74552" lon="5.00691">
        <ele>299</ele>
        <time>2018-05-08T19:16:31Z</time>
      </trkpt>
      <trkpt lat="43.74522" lon="5.00714">
        <ele>299</ele>
        <time>2018-05-08T19:17:31Z</time>
      </trkpt>
      <trkpt lat="43.74497" lon="5.00682">
        <ele>300</ele>
        <time>2018-05-08T19:18:31Z</time>
      </trkpt>
      <trkpt lat="43.74463" lon="5.00589">
        <ele>303</ele>
        <time>2018-05-08T19:19:31Z</time>
      </trkpt>
      <trkpt lat="43.74439" lon="5.00511">
        <ele>305</ele>
        <time>2018-05-08T19:20:31Z</time>
      </trkpt>
      <trkpt lat="43.74405" lon="5.00452">
        <ele>306</ele>
        <time>2018-05-08T19:21:31Z</time>
      </trkpt>
      <trkpt lat="43.74355" lon="5.00411">
        <ele>306</ele>
        <time>2018-05-08T19:22:31Z</time>
      </trkpt>
      <trkpt lat="43.74298" lon="5.00371">
        <ele>306</ele>
        <time>2018-05-08T19:23:31Z</time>
      </trkpt>
      <trkpt lat="43.74248" lon="5.00339">
        <ele>307</ele>
        <time>2018-05-08T19:24:31Z</time>
      </trkpt>
      <trkpt lat="43.74196" lon="5.00294">
        <ele>307</ele>
        <time>2018-05-08T19:25:31Z</time>
      </trkpt>
      <trkpt lat="43.74143" lon="5.00235">
        <ele>308</ele>
        <time>2018-05-08T19:26:31Z</time>
      </trkpt>
      <trkpt lat="43.74119" lon="5.0016">
        <ele>308</ele>
        <time>2018-05-08T19:27:31Z</time>
      </trkpt>
      <trkpt lat="43.74103" lon="5.00077">
        <ele>309</ele>
        <time>2018-05-08T19:28:31Z</time>
      </trkpt>
      <trkpt lat="43.74104" lon="4.99995">
        <ele>308</ele>
        <time>2018-05-08T19:29:31Z</time>
      </trkpt>
      <trkpt lat="43.74113" lon="4.99898">
        <ele>307</ele>
        <time>2018-05-08T19:30:31Z</time>
      </trkpt>
      <trkpt lat="43.74117" lon="4.99829">
        <ele>306</ele>
        <time>2018-05-08T19:31:31Z</time>
      </trkpt>
      <trkpt lat="43.74136" lon="4.9978">
        <ele>306</ele>
        <time>2018-05-08T19:32:31Z</time>
      </trkpt>
      <trkpt lat="43.74157" lon="4.99698">
        <ele>306</ele>
        <time>2018-05-08T19:33:31Z</time>
      </trkpt>
      <trkpt lat="43.74171" lon="4.99617">
        <ele>306</ele>
        <time>2018-05-08T19:34:31Z</time>
      </trkpt>
      <trkpt lat="43.74181" lon="4.99547">
        <ele>306</ele>
        <time>2018-05-08T19:35:31Z</time>
      </trkpt>
      <trkpt lat="43.74198" lon="4.99466">
        <ele>304</ele>
        <time>2018-05-08T19:36:31Z</time>
      </trkpt>
      <trkpt lat="43.74229" lon="4.99393">
        <ele>301</ele>
        <time>2018-05-08T19:37:31Z</time>
      </trkpt>
      <trkpt lat="43.74257" lon="4.99334">
        <ele>299</ele>
        <time>2018-05-08T19:38:31Z</time>
      </trkpt>
      <trkpt lat="43.74295" lon="4.99301">
        <ele>298</ele>
        <time>2018-05-08T19:39:31Z</time>
      </trkpt>
      <trkpt lat="43.74318" lon="4.99279">
        <ele>297</ele>
        <time>2018-05-08T19:40:31Z</time>
      </trkpt>
      <trkpt lat="43.74346" lon="4.99259">
        <ele>296</ele>
        <time>2018-05-08T19:41:31Z</time>
      </trkpt>
      <trkpt lat="43.74394" lon="4.99223">
        <ele>294</ele>
        <time>2018-05-08T19:42:31Z</time>
      </trkpt>
      <trkpt lat="43.74412" lon="4.99206">
        <ele>293</ele>
        <time>2018-05-08T19:43:31Z</time>
      </trkpt>
      <trkpt lat="43.74435" lon="4.99185">
        <ele>292</ele>
        <time>2018-05-08T19:44:31Z</time>
      </trkpt>
      <trkpt lat="43.74436" lon="4.99184">
        <ele>292</ele>
        <time>2018-05-08T19:45:31Z</time>
      </trkpt>
      <trkpt lat="43.74438" lon="4.99183">
        <ele>292</ele>
        <time>2018-05-08T19:46:31Z</time>
      </trkpt>
      <trkpt lat="43.74436" lon="4.99183">
        <ele>292</ele>
        <time>2018-05-08T19:47:31Z</time>
      </trkpt>
      <trkpt lat="43.74437" lon="4.99184">
        <ele>292</ele>
        <time>2018-05-08T19:48:31Z</time>
      </trkpt>
      <trkpt lat="43.74437" lon="4.99185">
        <ele>292</ele>
        <time>2018-05-08T19:49:31Z</time>
      </trkpt>
      <trkpt lat="43.74437" lon="4.99183">
        <ele>292</ele>
        <time>2018-05-08T19:50:31Z</time>
      </trkpt>
      <trkpt lat="43.74437" lon="4.99184">
        <ele>292</ele>
        <time>2018-05-08T19:51:31Z</time>
      </trkpt>
      <trkpt lat="43.74437" lon="4.99183">
        <ele>292</ele>
        <time>2018-05-08T19:52:31Z</time>
      </trkpt>
      <trkpt lat="43.74438" lon="4.99183">
        <ele>292</ele>
        <time>2018-05-08T19:53:31Z</time>
      </trkpt>
      <trkpt lat="43.74438" lon="4.99183">
        <ele>292</ele>
        <time>2018-05-08T19:54:31Z</time>
      </trkpt>
      <trkpt lat="43.74437" lon="4.99183">
        <ele>292</ele>
        <time>2018-05-08T19:55:31Z</time>
      </trkpt>
      <trkpt lat="43.74438" lon="4.99182">
        <ele>292</ele>
        <time>2018-05-08T19:56:31Z</time>
      </trkpt>
      <trkpt lat="43.74437" lon="4.99187">
        <ele>292</ele>
        <time>2018-05-08T19:57:31Z</time>
      </trkpt>
      <trkpt lat="43.74437" lon="4.99185">
        <ele>292</ele>
        <time>2018-05-08T19:58:31Z</time>
      </trkpt>
      <trkpt lat="43.74438" lon="4.99185">
        <ele>292</ele>
        <time>2018-05-08T19:59:31Z</time>
      </trkpt>
      <trkpt lat="43.74437" lon="4.99187">
        <ele>292</ele>
        <time>2018-05-08T20:00:31Z</time>
      </trkpt>
      <trkpt lat="43.74436" lon="4.99188">
        <ele>292</ele>
        <time>2018-05-08T20:01:31Z</time>
      </trkpt>
      <trkpt lat="43.74437" lon="4.99188">
        <ele>292</ele>
        <time>2018-05-08T20:02:31Z</time>
      </trkpt>
      <trkpt lat="43.74436" lon="4.99184">
        <ele>292</ele>
        <time>2018-05-08T20:03:31Z</time>
      </trkpt>
      <trkpt lat="43.74436" lon="4.9918">
        <ele>292</ele>
        <time>2018-05-08T20:04:31Z</time>
      </trkpt>
      <trkpt lat="43.74445" lon="4.99169">
        <ele>291</ele>
        <time>2018-05-08T20:05:31Z</time>
      </trkpt>
      <trkpt lat="43.74467" lon="4.99148">
        <ele>291</ele>
        <time>2018-05-08T20:06:31Z</time>
      </trkpt>
      <trkpt lat="43.74492" lon="4.99117">
        <ele>290</ele>
        <time>2018-05-08T20:07:31Z</time>
      </trkpt>
      <trkpt lat="43.74509" lon="4.99096">
        <ele>290</ele>
        <time>2018-05-08T20:08:31Z</time>
      </trkpt>
      <trkpt lat="43.74528" lon="4.99063">
        <ele>290</ele>
        <time>2018-05-08T20:09:31Z</time>
      </trkpt>
      <trkpt lat="43.74535" lon="4.99031">
        <ele>290</ele>
        <time>2018-05-08T20:10:31Z</time>
      </trkpt>
      <trkpt lat="43.74551" lon="4.98982">
        <ele>291</ele>
        <time>2018-05-08T20:11:31Z</time>
      </trkpt>
      <trkpt lat="43.7456" lon="4.98917">
        <ele>291</ele>
        <time>2018-05-08T20:12:31Z</time>
      </trkpt>
      <trkpt lat="43.74546" lon="4.98848">
        <ele>289</ele>
        <time>2018-05-08T20:13:31Z</time>
      </trkpt>
      <trkpt lat="43.74525" lon="4.98802">
        <ele>288</ele>
        <time>2018-05-08T20:14:31Z</time>
      </trkpt>
      <trkpt lat="43.74454" lon="4.98648">
        <ele>285</ele>
        <time>2018-05-08T20:15:31Z</time>
      </trkpt>
      <trkpt lat="43.74426" lon="4.98591">
        <ele>284</ele>
        <time>2018-05-08T20:16:31Z</time>
      </trkpt>
      <trkpt lat="43.74406" lon="4.98544">
        <ele>285</ele>
        <time>2018-05-08T20:17:31Z</time>
      </trkpt>
      <trkpt lat="43.74388" lon="4.98505">
        <ele>286</ele>
        <time>2018-05-08T20:18:31Z</time>
      </trkpt>
      <trkpt lat="43.74372" lon="4.98465">
        <ele>286</ele>
        <time>2018-05-08T20:19:31Z</time>
      </trkpt>
      <trkpt lat="43.74353" lon="4.98427">
        <ele>287</ele>
        <time>2018-05-08T20:20:31Z</time>
      </trkpt>
      <trkpt lat="43.7433" lon="4.98381">
        <ele>287</ele>
        <time>2018-05-08T20:21:31Z</time>
      </trkpt>
      <trkpt lat="43.74313" lon="4.98341">
        <ele>287</ele>
        <time>2018-05-08T20:22:31Z</time>
      </trkpt>
      <trkpt lat="43.74293" lon="4.98306">
        <ele>287</ele>
        <time>2018-05-08T20:23:31Z</time>
      </trkpt>
      <trkpt lat="43.74274" lon="4.98263">
        <ele>286</ele>
        <time>2018-05-08T20:24:31Z</time>
      </trkpt>
      <trkpt lat="43.74257" lon="4.98227">
        <ele>286</ele>
        <time>2018-05-08T20:25:31Z</time>
      </trkpt>
      <trkpt lat="43.7424" lon="4.98185">
        <ele>286</ele>
        <time>2018-05-08T20:26:31Z</time>
      </trkpt>
      <trkpt lat="43.74217" lon="4.98134">
        <ele>287</ele>
        <time>2018-05-08T20:27:31Z</time>
      </trkpt>
      <trkpt lat="43.74186" lon="4.98076">
        <ele>288</ele>
        <time>2018-05-08T20:28:31Z</time>
      </trkpt>
      <trkpt lat="43.74167" lon="4.98037">
        <ele>289</ele>
        <time>2018-05-08T20:29:31Z</time>
      </trkpt>
      <trkpt lat="43.74142" lon="4.97982">
        <ele>291</ele>
        <time>2018-05-08T20:30:31Z</time>
      </trkpt>
      <trkpt lat="43.74115" lon="4.97923">
        <ele>292</ele>
        <time>2018-05-08T20:31:31Z</time>
      </trkpt>
      <trkpt lat="43.74085" lon="4.97857">
        <ele>293</ele>
        <time>2018-05-08T20:32:31Z</time>
      </trkpt>
      <trkpt lat="43.74043" lon="4.97764">
        <ele>298</ele>
        <time>2018-05-08T20:33:31Z</time>
      </trkpt>
      <trkpt lat="43.74024" lon="4.97726">
        <ele>299</ele>
        <time>2018-05-08T20:34:31Z</time>
      </trkpt>
      <trkpt lat="43.74009" lon="4.97696">
        <ele>299</ele>
        <time>2018-05-08T20:35:31Z</time>
      </trkpt>
      <trkpt lat="43.73984" lon="4.97685">
        <ele>301</ele>
        <time>2018-05-08T20:36:31Z</time>
      </trkpt>
      <trkpt lat="43.73956" lon="4.97684">
        <ele>303</ele>
        <time>2018-05-08T20:37:31Z</time>
      </trkpt>
      <trkpt lat="43.73927" lon="4.97677">
        <ele>305</ele>
        <time>2018-05-08T20:38:31Z</time>
      </trkpt>
      <trkpt lat="43.7389" lon="4.97676">
        <ele>308</ele>
        <time>2018-05-08T20:39:31Z</time>
      </trkpt>
      <trkpt lat="43.73867" lon="4.97683">
        <ele>310</ele>
        <time>2018-05-08T20:40:31Z</time>
      </trkpt>
      <trkpt lat="43.73861" lon="4.97727">
        <ele>308</ele>
        <time>2018-05-08T20:41:31Z</time>
      </trkpt>
      <trkpt lat="43.73842" lon="4.97758">
        <ele>308</ele>
        <time>2018-05-08T20:42:31Z</time>
      </trkpt>
      <trkpt lat="43.73835" lon="4.97784">
        <ele>309</ele>
        <time>2018-05-08T20:43:31Z</time>
      </trkpt>
      <trkpt lat="43.73854" lon="4.97813">
        <ele>308</ele>
        <time>2018-05-08T20:44:31Z</time>
      </trkpt>
      <trkpt lat="43.73847" lon="4.97847">
        <ele>308</ele>
        <time>2018-05-08T20:45:31Z</time>
      </trkpt>
      <trkpt lat="43.73824" lon="4.97875">
        <ele>311</ele>
        <time>2018-05-08T20:46:31Z</time>
      </trkpt>
      <trkpt lat="43.73809" lon="4.97909">
        <ele>314</ele>
        <time>2018-05-08T20:47:31Z</time>
      </trkpt>
      <trkpt lat="43.73797" lon="4.97948">
        <ele>314</ele>
        <time>2018-05-08T20:48:31Z</time>
      </trkpt>
      <trkpt lat="43.73774" lon="4.97966">
        <ele>316</ele>
        <time>2018-05-08T20:49:31Z</time>
      </trkpt>
      <trkpt lat="43.7376" lon="4.97966">
        <ele>318</ele>
        <time>2018-05-08T20:50:31Z</time>
      </trkpt>
      <trkpt lat="43.73759" lon="4.97963">
        <ele>318</ele>
        <time>2018-05-08T20:51:31Z</time>
      </trkpt>
      <trkpt lat="43.73743" lon="4.97952">
        <ele>321</ele>
        <time>2018-05-08T20:52:31Z</time>
      </trkpt>
      <trkpt lat="43.7372" lon="4.97931">
        <ele>325</ele>
        <time>2018-05-08T20:53:31Z</time>
      </trkpt>
      <trkpt lat="43.7369" lon="4.97915">
        <ele>328</ele>
        <time>2018-05-08T20:54:31Z</time>
      </trkpt>
      <trkpt lat="43.73633" lon="4.97887">
        <ele>333</ele>
        <time>2018-05-08T20:55:31Z</time>
      </trkpt>
      <trkpt lat="43.73604" lon="4.97892">
        <ele>333</ele>
        <time>2018-05-08T20:56:31Z</time>
      </trkpt>
      <trkpt lat="43.73584" lon="4.97913">
        <ele>332</ele>
        <time>2018-05-08T20:57:31Z</time>
      </trkpt>
      <trkpt lat="43.7357" lon="4.9789">
        <ele>328</ele>
        <time>2018-05-08T20:58:31Z</time>
      </trkpt>
      <trkpt lat="43.73574" lon="4.9785">
        <ele>331</ele>
        <time>2018-05-08T20:59:31Z</time>
      </trkpt>
      <trkpt lat="43.73562" lon="4.97781">
        <ele>323</ele>
        <time>2018-05-08T21:00:31Z</time>
      </trkpt>
      <trkpt lat="43.73568" lon="4.97745">
        <ele>324</ele>
        <time>2018-05-08T21:01:31Z</time>
      </trkpt>
      <trkpt lat="43.73578" lon="4.9771">
        <ele>324</ele>
        <time>2018-05-08T21:02:31Z</time>
      </trkpt>
      <trkpt lat="43.73588" lon="4.97641">
        <ele>320</ele>
        <time>2018-05-08T21:03:31Z</time>
      </trkpt>
      <trkpt lat="43.73611" lon="4.97499">
        <ele>316</ele>
        <time>2018-05-08T21:04:31Z</time>
      </trkpt>
      <trkpt lat="43.73629" lon="4.97442">
        <ele>316</ele>
        <time>2018-05-08T21:05:31Z</time>
      </trkpt>
      <trkpt lat="43.73648" lon="4.97369">
        <ele>318</ele>
        <time>2018-05-08T21:06:31Z</time>
      </trkpt>
      <trkpt lat="43.73653" lon="4.9729">
        <ele>318</ele>
        <time>2018-05-08T21:07:31Z</time>
      </trkpt>
      <trkpt lat="43.73653" lon="4.97249">
        <ele>317</ele>
        <time>2018-05-08T21:08:31Z</time>
      </trkpt>
      <trkpt lat="43.73657" lon="4.97162">
        <ele>315</ele>
        <time>2018-05-08T21:09:31Z</time>
      </trkpt>
      <trkpt lat="43.73659" lon="4.97121">
        <ele>312</ele>
        <time>2018-05-08T21:10:31Z</time>
      </trkpt>
      <trkpt lat="43.73682" lon="4.97095">
        <ele>317</ele>
        <time>2018-05-08T21:11:31Z</time>
      </trkpt>
      <trkpt lat="43.73693" lon="4.97048">
        <ele>319</ele>
        <time>2018-05-08T21:12:31Z</time>
      </trkpt>
      <trkpt lat="43.73703" lon="4.97006">
        <ele>321</ele>
        <time>2018-05-08T21:13:31Z</time>
      </trkpt>
      <trkpt lat="43.73696" lon="4.96959">
        <ele>322</ele>
        <time>2018-05-08T21:14:31Z</time>
      </trkpt>
      <trkpt lat="43.73683" lon="4.96938">
        <ele>319</ele>
        <time>2018-05-08T21:15:31Z</time>
      </trkpt>
      <trkpt lat="43.73659" lon="4.96921">
        <ele>314</ele>
        <time>2018-05-08T21:16:31Z</time>
      </trkpt>
      <trkpt lat="43.73656" lon="4.96841">
        <ele>314</ele>
        <time>2018-05-08T21:17:31Z</time>
      </trkpt>
      <trkpt lat="43.73665" lon="4.96744">
        <ele>315</ele>
        <time>2018-05-08T21:18:31Z</time>
      </trkpt>
      <trkpt lat="43.73658" lon="4.967">
        <ele>315</ele>
        <time>2018-05-08T21:19:31Z</time>
      </trkpt>
      <trkpt lat="43.73604" lon="4.96689">
        <ele>310</ele>
        <time>2018-05-08T21:20:31Z</time>
      </trkpt>
      <trkpt lat="43.73552" lon="4.9666">
        <ele>310</ele>
        <time>2018-05-08T21:21:31Z</time>
      </trkpt>
      <trkpt lat="43.73497" lon="4.96636">
        <ele>311</ele>
        <time>2018-05-08T21:22:31Z</time>
      </trkpt>
      <trkpt lat="43.73463" lon="4.96613">
        <ele>313</ele>
        <time>2018-05-08T21:23:31Z</time>
      </trkpt>
      <trkpt lat="43.73433" lon="4.96581">
        <ele>316</ele>
        <time>2018-05-08T21:24:31Z</time>
      </trkpt>
      <trkpt lat="43.73408" lon="4.96557">
        <ele>316</ele>
        <time>2018-05-08T21:25:31Z</time>
      </trkpt>
      <trkpt lat="43.73396" lon="4.96551">
        <ele>316</ele>
        <time>2018-05-08T21:26:31Z</time>
      </trkpt>
      <trkpt lat="43.73395" lon="4.96552">
        <ele>316</ele>
        <time>2018-05-08T21:27:31Z</time>
      </trkpt>
      <trkpt lat="43.73394" lon="4.96551">
        <ele>316</ele>
        <time>2018-05-08T21:28:31Z</time>
      </trkpt>
      <trkpt lat="43.73395" lon="4.96549">
        <ele>316</ele>
        <time>2018-05-08T21:29:31Z</time>
      </trkpt>
      <trkpt lat="43.7338" lon="4.96534">
        <ele>315</ele>
        <time>2018-05-08T21:30:31Z</time>
      </trkpt>
      <trkpt lat="43.73372" lon="4.96501">
        <ele>316</ele>
        <time>2018-05-08T21:31:31Z</time>
      </trkpt>
      <trkpt lat="43.73376" lon="4.96466">
        <ele>315</ele>
        <time>2018-05-08T21:32:31Z</time>
      </trkpt>
      <trkpt lat="43.73362" lon="4.96437">
        <ele>317</ele>
        <time>2018-05-08T21:33:31Z</time>
      </trkpt>
      <trkpt lat="43.7334" lon="4.96418">
        <ele>319</ele>
        <time>2018-05-08T21:34:31Z</time>
      </trkpt>
      <trkpt lat="43.73323" lon="4.96386">
        <ele>320</ele>
        <time>2018-05-08T21:35:31Z</time>
      </trkpt>
      <trkpt lat="43.73304" lon="4.9635">
        <ele>322</ele>
        <time>2018-05-08T21:36:31Z</time>
      </trkpt>
      <trkpt lat="43.73283" lon="4.96336">
        <ele>326</ele>
        <time>2018-05-08T21:37:31Z</time>
      </trkpt>
      <trkpt lat="43.73267" lon="4.96363">
        <ele>329</ele>
        <time>2018-05-08T21:38:31Z</time>
      </trkpt>
      <trkpt lat="43.73246" lon="4.96379">
        <ele>331</ele>
        <time>2018-05-08T21:39:31Z</time>
      </trkpt>
      <trkpt lat="43.73221" lon="4.96345">
        <ele>337</ele>
        <time>2018-05-08T21:40:31Z</time>
      </trkpt>
      <trkpt lat="43.73204" lon="4.9631">
        <ele>340</ele>
        <time>2018-05-08T21:41:31Z</time>
      </trkpt>
      <trkpt lat="43.73187" lon="4.9628">
        <ele>344</ele>
        <time>2018-05-08T21:42:31Z</time>
      </trkpt>
      <trkpt lat="43.7318" lon="4.96241">
        <ele>346</ele>
        <time>2018-05-08T21:43:31Z</time>
      </trkpt>
      <trkpt lat="43.73164" lon="4.96215">
        <ele>349</ele>
        <time>2018-05-08T21:44:31Z</time>
      </trkpt>
      <trkpt lat="43.73138" lon="4.96196">
        <ele>349</ele>
        <time>2018-05-08T21:45:31Z</time>
      </trkpt>
      <trkpt lat="43.73138" lon="4.96176">
        <ele>348</ele>
        <time>2018-05-08T21:46:31Z</time>
      </trkpt>
      <trkpt lat="43.73165" lon="4.96175">
        <ele>348</ele>
        <time>2018-05-08T21:47:31Z</time>
      </trkpt>
      <trkpt lat="43.73189" lon="4.96184">
        <ele>343</ele>
        <time>2018-05-08T21:48:31Z</time>
      </trkpt>
      <trkpt lat="43.73207" lon="4.96156">
        <ele>339</ele>
        <time>2018-05-08T21:49:31Z</time>
      </trkpt>
      <trkpt lat="43.73207" lon="4.96127">
        <ele>336</ele>
        <time>2018-05-08T21:50:31Z</time>
      </trkpt>
      <trkpt lat="43.73184" lon="4.9611">
        <ele>340</ele>
        <time>2018-05-08T21:51:31Z</time>
      </trkpt>
      <trkpt lat="43.73172" lon="4.96078">
        <ele>340</ele>
        <time>2018-05-08T21:52:31Z</time>
      </trkpt>
      <trkpt lat="43.73183" lon="4.96032">
        <ele>335</ele>
        <time>2018-05-08T21:53:31Z</time>
      </trkpt>
      <trkpt lat="43.73206" lon="4.96004">
        <ele>332</ele>
        <time>2018-05-08T21:54:31Z</time>
      </trkpt>
      <trkpt lat="43.73233" lon="4.95984">
        <ele>332</ele>
        <time>2018-05-08T21:55:31Z</time>
      </trkpt>
      <trkpt lat="43.7326" lon="4.95966">
        <ele>333</ele>
        <time>2018-05-08T21:56:31Z</time>
      </trkpt>
      <trkpt lat="43.73283" lon="4.95951">
        <ele>331</ele>
        <time>2018-05-08T21:57:31Z</time>
      </trkpt>
      <trkpt lat="43.73288" lon="4.95923">
        <ele>333</ele>
        <time>2018-05-08T21:58:31Z</time>
      </trkpt>
      <trkpt lat="43.73285" lon="4.95891">
        <ele>332</ele>
        <time>2018-05-08T21:59:31Z</time>
      </trkpt>
      <trkpt lat="43.73297" lon="4.95848">
        <ele>329</ele>
        <time>2018-05-08T22:00:31Z</time>
      </trkpt>
      <trkpt lat="43.73322" lon="4.95822">
        <ele>325</ele>
        <time>2018-05-08T22:01:31Z</time>
      </trkpt>
      <trkpt lat="43.73348" lon="4.95816">
        <ele>323</ele>
        <time>2018-05-08T22:02:31Z</time>
      </trkpt>
      <trkpt lat="43.73375" lon="4.95814">
        <ele>321</ele>
        <time>2018-05-08T22:03:31Z</time>
      </trkpt>
      <trkpt lat="43.73395" lon="4.95814">
        <ele>321</ele>
        <time>2018-05-08T22:04:31Z</time>
      </trkpt>
      <trkpt lat="43.73407" lon="4.95796">
        <ele>319</ele>
        <time>2018-05-08T22:05:31Z</time>
      </trkpt>
      <trkpt lat="43.734" lon="4.95758">
        <ele>317</ele>
        <time>2018-05-08T22:06:31Z</time>
      </trkpt>
      <trkpt lat="43.73394" lon="4.95714">
        <ele>312</ele>
        <time>2018-05-08T22:07:31Z</time>
      </trkpt>
      <trkpt lat="43.73396" lon="4.95673">
        <ele>306</ele>
        <time>2018-05-08T22:08:31Z</time>
      </trkpt>
      <trkpt lat="43.73398" lon="4.95641">
        <ele>305</ele>
        <time>2018-05-08T22:09:31Z</time>
      </trkpt>
      <trkpt lat="43.73369" lon="4.9559">
        <ele>304</ele>
        <time>2018-05-08T22:10:31Z</time>
      </trkpt>
      <trkpt lat="43.73363" lon="4.95551">
        <ele>302</ele>
        <time>2018-05-08T22:11:31Z</time>
      </trkpt>
      <trkpt lat="43.73387" lon="4.95521">
        <ele>301</ele>
        <time>2018-05-08T22:12:31Z</time>
      </trkpt>
      <trkpt lat="43.7339" lon="4.95514">
        <ele>301</ele>
        <time>2018-05-08T22:13:31Z</time>
      </trkpt>
      <trkpt lat="43.73407" lon="4.95469">
        <ele>302</ele>
        <time>2018-05-08T22:14:31Z</time>
      </trkpt>
      <trkpt lat="43.73427" lon="4.95425">
        <ele>305</ele>
        <time>2018-05-08T22:15:31Z</time>
      </trkpt>
      <trkpt lat="43.73451" lon="4.95396">
        <ele>305</ele>
        <time>2018-05-08T22:16:31Z</time>
      </trkpt>
      <trkpt lat="43.73471" lon="4.95372">
        <ele>306</ele>
        <time>2018-05-08T22:17:31Z</time>
      </trkpt>
      <trkpt lat="43.73489" lon="4.95324">
        <ele>308</ele>
        <time>2018-05-08T22:18:31Z</time>
      </trkpt>
      <trkpt lat="43.73489" lon="4.95281">
        <ele>306</ele>
        <time>2018-05-08T22:19:31Z</time>
      </trkpt>
      <trkpt lat="43.73492" lon="4.95238">
        <ele>304</ele>
        <time>2018-05-08T22:20:31Z</time>
      </trkpt>
      <trkpt lat="43.7351" lon="4.95207">
        <ele>305</ele>
        <time>2018-05-08T22:21:31Z</time>
      </trkpt>
      <trkpt lat="43.7353" lon="4.95178">
        <ele>306</ele>
        <time>2018-05-08T22:22:31Z</time>
      </trkpt>
      <trkpt lat="43.7355" lon="4.95151">
        <ele>306</ele>
        <time>2018-05-08T22:23:31Z</time>
      </trkpt>
      <trkpt lat="43.7357" lon="4.95125">
        <ele>305</ele>
        <time>2018-05-08T22:24:31Z</time>
      </trkpt>
      <trkpt lat="43.73587" lon="4.95101">
        <ele>304</ele>
        <time>2018-05-08T22:25:31Z</time>
      </trkpt>
      <trkpt lat="43.73593" lon="4.95062">
        <ele>299</ele>
        <time>2018-05-08T22:26:31Z</time>
      </trkpt>
      <trkpt lat="43.73605" lon="4.95015">
        <ele>293</ele>
        <time>2018-05-08T22:27:31Z</time>
      </trkpt>
      <trkpt lat="43.73607" lon="4.9501">
        <ele>292</ele>
        <time>2018-05-08T22:28:31Z</time>
      </trkpt>
      <trkpt lat="43.73607" lon="4.95012">
        <ele>293</ele>
        <time>2018-05-08T22:29:31Z</time>
      </trkpt>
      <trkpt lat="43.73608" lon="4.95012">
        <ele>292</ele>
        <time>2018-05-08T22:30:31Z</time>
      </trkpt>
      <trkpt lat="43.73608" lon="4.95011">
        <ele>292</ele>
        <time>2018-05-08T22:31:31Z</time>
      </trkpt>
      <trkpt lat="43.73605" lon="4.95011">
        <ele>293</ele>
        <time>2018-05-08T22:32:31Z</time>
      </trkpt>
      <trkpt lat="43.73606" lon="4.95011">
        <ele>293</ele>
        <time>2018-05-08T22:33:31Z</time>
      </trkpt>
      <trkpt lat="43.73607" lon="4.95012">
        <ele>293</ele>
        <time>2018-05-08T22:34:31Z</time>
      </trkpt>
      <trkpt lat="43.73608" lon="4.9501">
        <ele>292</ele>
        <time>2018-05-08T22:35:31Z</time>
      </trkpt>
      <trkpt lat="43.73608" lon="4.95011">
        <ele>292</ele>
        <time>2018-05-08T22:36:31Z</time>
      </trkpt>
      <trkpt lat="43.73607" lon="4.95009">
        <ele>292</ele>
        <time>2018-05-08T22:37:31Z</time>
      </trkpt>
      <trkpt lat="43.73608" lon="4.95008">
        <ele>292</ele>
        <time>2018-05-08T22:38:31Z</time>
      </trkpt>
      <trkpt lat="43.73606" lon="4.95008">
        <ele>292</ele>
        <time>2018-05-08T22:39:31Z</time>
      </trkpt>
      <trkpt lat="43.73606" lon="4.95008">
        <ele>292</ele>
        <time>2018-05-08T22:40:31Z</time>
      </trkpt>
      <trkpt lat="43.73608" lon="4.94991">
        <ele>291</ele>
        <time>2018-05-08T22:41:31Z</time>
      </trkpt>
      <trkpt lat="43.73609" lon="4.94989">
        <ele>291</ele>
        <time>2018-05-08T22:42:31Z</time>
      </trkpt>
      <trkpt lat="43.7361" lon="4.94987">
        <ele>291</ele>
        <time>2018-05-08T22:43:31Z</time>
      </trkpt>
      <trkpt lat="43.73614" lon="4.94983">
        <ele>290</ele>
        <time>2018-05-08T22:44:31Z</time>
      </trkpt>
      <trkpt lat="43.73615" lon="4.94983">
        <ele>290</ele>
        <time>2018-05-08T22:45:31Z</time>
      </trkpt>
      <trkpt lat="43.73617" lon="4.94983">
        <ele>290</ele>
        <time>2018-05-08T22:46:31Z</time>
      </trkpt>
      <trkpt lat="43.73627" lon="4.95002">
        <ele>290</ele>
        <time>2018-05-08T22:47:31Z</time>
      </trkpt>
      <trkpt lat="43.73635" lon="4.95037">
        <ele>293</ele>
        <time>2018-05-08T22:48:31Z</time>
      </trkpt>
      <trkpt lat="43.73658" lon="4.95106">
        <ele>298</ele>
        <time>2018-05-08T22:49:31Z</time>
      </trkpt>
      <trkpt lat="43.73666" lon="4.95141">
        <ele>301</ele>
        <time>2018-05-08T22:50:31Z</time>
      </trkpt>
      <trkpt lat="43.73686" lon="4.95142">
        <ele>302</ele>
        <time>2018-05-08T22:51:31Z</time>
      </trkpt>
      <trkpt lat="43.73711" lon="4.95111">
        <ele>299</ele>
        <time>2018-05-08T22:52:31Z</time>
      </trkpt>
      <trkpt lat="43.73729" lon="4.95099">
        <ele>298</ele>
        <time>2018-05-08T22:53:31Z</time>
      </trkpt>
      <trkpt lat="43.7375" lon="4.95098">
        <ele>299</ele>
        <time>2018-05-08T22:54:31Z</time>
      </trkpt>
      <trkpt lat="43.73759" lon="4.95064">
        <ele>297</ele>
        <time>2018-05-08T22:55:31Z</time>
      </trkpt>
      <trkpt lat="43.73765" lon="4.95048">
        <ele>297</ele>
        <time>2018-05-08T22:56:31Z</time>
      </trkpt>
      <trkpt lat="43.73764" lon="4.95002">
        <ele>290</ele>
        <time>2018-05-08T22:57:31Z</time>
      </trkpt>
      <trkpt lat="43.73766" lon="4.94973">
        <ele>286</ele>
        <time>2018-05-08T22:58:31Z</time>
      </trkpt>
      <trkpt lat="43.73779" lon="4.94943">
        <ele>285</ele>
        <time>2018-05-08T22:59:31Z</time>
      </trkpt>
      <trkpt lat="43.7378" lon="4.9494">
        <ele>284</ele>
        <time>2018-05-08T23:00:31Z</time>
      </trkpt>
      <trkpt lat="43.73791" lon="4.94929">
        <ele>285</ele>
        <time>2018-05-08T23:01:31Z</time>
      </trkpt>
      <trkpt lat="43.73818" lon="4.94924">
        <ele>290</ele>
        <time>2018-05-08T23:02:31Z</time>
      </trkpt>
      <trkpt lat="43.73828" lon="4.94891">
        <ele>286</ele>
        <time>2018-05-08T23:03:31Z</time>
      </trkpt>
      <trkpt lat="43.73836" lon="4.94864">
        <ele>285</ele>
        <time>2018-05-08T23:04:31Z</time>
      </trkpt>
      <trkpt lat="43.73845" lon="4.94834">
        <ele>284</ele>
        <time>2018-05-08T23:05:31Z</time>
      </trkpt>
      <trkpt lat="43.73843" lon="4.94795">
        <ele>278</ele>
        <time>2018-05-08T23:06:31Z</time>
      </trkpt>
      <trkpt lat="43.73846" lon="4.94768">
        <ele>275</ele>
        <time>2018-05-08T23:07:31Z</time>
      </trkpt>
      <trkpt lat="43.73857" lon="4.94734">
        <ele>275</ele>
        <time>2018-05-08T23:08:31Z</time>
      </trkpt>
      <trkpt lat="43.7386" lon="4.94695">
        <ele>270</ele>
        <time>2018-05-08T23:09:31Z</time>
      </trkpt>
      <trkpt lat="43.73876" lon="4.94678">
        <ele>273</ele>
        <time>2018-05-08T23:10:31Z</time>
      </trkpt>
      <trkpt lat="43.73894" lon="4.94654">
        <ele>275</ele>
        <time>2018-05-08T23:11:31Z</time>
      </trkpt>
      <trkpt lat="43.73905" lon="4.94624">
        <ele>272</ele>
        <time>2018-05-08T23:12:31Z</time>
      </trkpt>
      <trkpt lat="43.73924" lon="4.94593">
        <ele>272</ele>
        <time>2018-05-08T23:13:31Z</time>
      </trkpt>
      <trkpt lat="43.73933" lon="4.94554">
        <ele>268</ele>
        <time>2018-05-08T23:14:31Z</time>
      </trkpt>
      <trkpt lat="43.73938" lon="4.94516">
        <ele>262</ele>
        <time>2018-05-08T23:15:31Z</time>
      </trkpt>
      <trkpt lat="43.73957" lon="4.94492">
        <ele>266</ele>
        <time>2018-05-08T23:16:31Z</time>
      </trkpt>
      <trkpt lat="43.73974" lon="4.94461">
        <ele>265</ele>
        <time>2018-05-08T23:17:31Z</time>
      </trkpt>
      <trkpt lat="43.73986" lon="4.94426">
        <ele>259</ele>
        <time>2018-05-08T23:18:31Z</time>
      </trkpt>
      <trkpt lat="43.73998" lon="4.9438">
        <ele>250</ele>
        <time>2018-05-08T23:19:31Z</time>
      </trkpt>
      <trkpt lat="43.74016" lon="4.9436">
        <ele>252</ele>
        <time>2018-05-08T23:20:31Z</time>
      </trkpt>
      <trkpt lat="43.7404" lon="4.94348">
        <ele>257</ele>
        <time>2018-05-08T23:21:31Z</time>
      </trkpt>
      <trkpt lat="43.74062" lon="4.94321">
        <ele>255</ele>
        <time>2018-05-08T23:22:31Z</time>
      </trkpt>
      <trkpt lat="43.74079" lon="4.94299">
        <ele>254</ele>
        <time>2018-05-08T23:23:31Z</time>
      </trkpt>
      <trkpt lat="43.74097" lon="4.9428">
        <ele>252</ele>
        <time>2018-05-08T23:24:31Z</time>
      </trkpt>
      <trkpt lat="43.7413" lon="4.94254">
        <ele>248</ele>
        <time>2018-05-08T23:25:31Z</time>
      </trkpt>
      <trkpt lat="43.74154" lon="4.94234">
        <ele>246</ele>
        <time>2018-05-08T23:26:31Z</time>
      </trkpt>
      <trkpt lat="43.74182" lon="4.9422">
        <ele>248</ele>
        <time>2018-05-08T23:27:31Z</time>
      </trkpt>
      <trkpt lat="43.74193" lon="4.94188">
        <ele>242</ele>
        <time>2018-05-08T23:28:31Z</time>
      </trkpt>
      <trkpt lat="43.74211" lon="4.94166">
        <ele>240</ele>
        <time>2018-05-08T23:29:31Z</time>
      </trkpt>
      <trkpt lat="43.74229" lon="4.94135">
        <ele>239</ele>
        <time>2018-05-08T23:30:31Z</time>
      </trkpt>
      <trkpt lat="43.74248" lon="4.94088">
        <ele>235</ele>
        <time>2018-05-08T23:31:31Z</time>
      </trkpt>
      <trkpt lat="43.74254" lon="4.94056">
        <ele>236</ele>
        <time>2018-05-08T23:32:31Z</time>
      </trkpt>
      <trkpt lat="43.74252" lon="4.94012">
        <ele>237</ele>
        <time>2018-05-08T23:33:31Z</time>
      </trkpt>
      <trkpt lat="43.74255" lon="4.93966">
        <ele>236</ele>
        <time>2018-05-08T23:34:31Z</time>
      </trkpt>
      <trkpt lat="43.74272" lon="4.93931">
        <ele>236</ele>
        <time>2018-05-08T23:35:31Z</time>
      </trkpt>
      <trkpt lat="43.74301" lon="4.93902">
        <ele>237</ele>
        <time>2018-05-08T23:36:31Z</time>
      </trkpt>
      <trkpt lat="43.74359" lon="4.93867">
        <ele>235</ele>
        <time>2018-05-08T23:37:31Z</time>
      </trkpt>
      <trkpt lat="43.74363" lon="4.93862">
        <ele>235</ele>
        <time>2018-05-08T23:38:31Z</time>
      </trkpt>
      <trkpt lat="43.74363" lon="4.93861">
        <ele>235</ele>
        <time>2018-05-08T23:39:31Z</time>
      </trkpt>
      <trkpt lat="43.74366" lon="4.93863">
        <ele>235</ele>
        <time>2018-05-08T23:40:31Z</time>
      </trkpt>
      <trkpt lat="43.74365" lon="4.93862">
        <ele>235</ele>
        <time>2018-05-08T23:41:31Z</time>
      </trkpt>
      <trkpt lat="43.74367" lon="4.93864">
        <ele>235</ele>
        <time>2018-05-08T23:42:31Z</time>
      </trkpt>
      <trkpt lat="43.74366" lon="4.93863">
        <ele>235</ele>
        <time>2018-05-08T23:43:31Z</time>
      </trkpt>
      <trkpt lat="43.74365" lon="4.93861">
        <ele>235</ele>
        <time>2018-05-08T23:44:31Z</time>
      </trkpt>
      <trkpt lat="43.74366" lon="4.93862">
        <ele>235</ele>
        <time>2018-05-08T23:45:31Z</time>
      </trkpt>
      <trkpt lat="43.74364" lon="4.93863">
        <ele>235</ele>
        <time>2018-05-08T23:46:31Z</time>
      </trkpt>
      <trkpt lat="43.74374" lon="4.93854">
        <ele>234</ele>
        <time>2018-05-08T23:47:31Z</time>
      </trkpt>
      <trkpt lat="43.74428" lon="4.93781">
        <ele>233</ele>
        <time>2018-05-08T23:48:31Z</time>
      </trkpt>
      <trkpt lat="43.74457" lon="4.93741">
        <ele>232</ele>
        <time>2018-05-08T23:49:31Z</time>
      </trkpt>
      <trkpt lat="43.74486" lon="4.93711">
        <ele>230</ele>
        <time>2018-05-08T23:50:31Z</time>
      </trkpt>
      <trkpt lat="43.74531" lon="4.93672">
        <ele>227</ele>
        <time>2018-05-08T23:51:31Z</time>
      </trkpt>
      <trkpt lat="43.74567" lon="4.93615">
        <ele>223</ele>
        <time>2018-05-08T23:52:31Z</time>
      </trkpt>
      <trkpt lat="43.74605" lon="4.93543">
        <ele>221</ele>
        <time>2018-05-08T23:53:31Z</time>
      </trkpt>
      <trkpt lat="43.74602" lon="4.9349">
        <ele>221</ele>
        <time>2018-05-08T23:54:31Z</time>
      </trkpt>
      <trkpt lat="43.74603" lon="4.93414">
        <ele>223</ele>
        <time>2018-05-08T23:55:31Z</time>
      </trkpt>
      <trkpt lat="43.74601" lon="4.93369">
        <ele>222</ele>
        <time>2018-05-08T23:56:31Z</time>
      </trkpt>
      <trkpt lat="43.74601" lon="4.93325">
        <ele>221</ele>
        <time>2018-05-08T23:57:31Z</time>
      </trkpt>
      <trkpt lat="43.74617" lon="4.93281">
        <ele>223</ele>
        <time>2018-05-08T23:58:31Z</time>
      </trkpt>
      <trkpt lat="43.74617" lon="4.93247">
        <ele>222</ele>
        <time>2018-05-08T23:59:31Z</time>
      </trkpt>
      <trkpt lat="43.74623" lon="4.93209">
        <ele>220</ele>
        <time>2018-05-09T00:00:31Z</time>
      </trkpt>
      <trkpt lat="43.74616" lon="4.93183">
        <ele>218</ele>
        <time>2018-05-09T00:01:31Z</time>
      </trkpt>
      <trkpt lat="43.74588" lon="4.9316">
        <ele>216</ele>
        <time>2018-05-09T00:02:31Z</time>
      </trkpt>
      <trkpt lat="43.74575" lon="4.93118">
        <ele>216</ele>
        <time>2018-05-09T00:03:31Z</time>
      </trkpt>
      <trkpt lat="43.74559" lon="4.93094">
        <ele>216</ele>
        <time>2018-05-09T00:04:31Z</time>
      </trkpt>
      <trkpt lat="43.74529" lon="4.93084">
        <ele>216</ele>
        <time>2018-05-09T00:05:31Z</time>
      </trkpt>
      <trkpt lat="43.74432" lon="4.93053">
        <ele>209</ele>
        <time>2018-05-09T00:06:31Z</time>
      </trkpt>
      <trkpt lat="43.74416" lon="4.93031">
        <ele>208</ele>
        <time>2018-05-09T00:07:31Z</time>
      </trkpt>
      <trkpt lat="43.74428" lon="4.92999">
        <ele>211</ele>
        <time>2018-05-09T00:08:31Z</time>
      </trkpt>
      <trkpt lat="43.74476" lon="4.92957">
        <ele>211</ele>
        <time>2018-05-09T00:09:31Z</time>
      </trkpt>
      <trkpt lat="43.74499" lon="4.92932">
        <ele>210</ele>
        <time>2018-05-09T00:10:31Z</time>
      </trkpt>
      <trkpt lat="43.74511" lon="4.92898">
        <ele>207</ele>
        <time>2018-05-09T00:11:31Z</time>
      </trkpt>
      <trkpt lat="43.74522" lon="4.92858">
        <ele>203</ele>
        <time>2018-05-09T00:12:31Z</time>
      </trkpt>
      <trkpt lat="43.74548" lon="4.92843">
        <ele>203</ele>
        <time>2018-05-09T00:13:31Z</time>
      </trkpt>
      <trkpt lat="43.7458" lon="4.92825">
        <ele>202</ele>
        <time>2018-05-09T00:14:31Z</time>
      </trkpt>
      <trkpt lat="43.74597" lon="4.92801">
        <ele>201</ele>
        <time>2018-05-09T00:15:31Z</time>
      </trkpt>
      <trkpt lat="43.74595" lon="4.9277">
        <ele>201</ele>
        <time>2018-05-09T00:16:31Z</time>
      </trkpt>
      <trkpt lat="43.74594" lon="4.92762">
        <ele>201</ele>
        <time>2018-05-09T00:17:31Z</time>
      </trkpt>
      <trkpt lat="43.74596" lon="4.92736">
        <ele>201</ele>
        <time>2018-05-09T00:18:31Z</time>
      </trkpt>
      <trkpt lat="43.74594" lon="4.92696">
        <ele>198</ele>
        <time>2018-05-09T00:19:31Z</time>
      </trkpt>
      <trkpt lat="43.74596" lon="4.92663">
        <ele>196</ele>
        <time>2018-05-09T00:20:31Z</time>
      </trkpt>
      <trkpt lat="43.7461" lon="4.92627">
        <ele>193</ele>
        <time>2018-05-09T00:21:31Z</time>
      </trkpt>
      <trkpt lat="43.74638" lon="4.92567">
        <ele>188</ele>
        <time>2018-05-09T00:22:31Z</time>
      </trkpt>
      <trkpt lat="43.74648" lon="4.92544">
        <ele>186</ele>
        <time>2018-05-09T00:23:31Z</time>
      </trkpt>
      <trkpt lat="43.74636" lon="4.92516">
        <ele>182</ele>
        <time>2018-05-09T00:24:31Z</time>
      </trkpt>
      <trkpt lat="43.74629" lon="4.92478">
        <ele>178</ele>
        <time>2018-05-09T00:25:31Z</time>
      </trkpt>
      <trkpt lat="43.74637" lon="4.92439">
        <ele>176</ele>
        <time>2018-05-09T00:26:31Z</time>
      </trkpt>
      <trkpt lat="43.74652" lon="4.92406">
        <ele>174</ele>
        <time>2018-05-09T00:27:31Z</time>
      </trkpt>
      <trkpt lat="43.74676" lon="4.92383">
        <ele>174</ele>
        <time>2018-05-09T00:28:31Z</time>
      </trkpt>
      <trkpt lat="43.74691" lon="4.92366">
        <ele>173</ele>
        <time>2018-05-09T00:29:31Z</time>
      </trkpt>
      <trkpt lat="43.74704" lon="4.92342">
        <ele>172</ele>
        <time>2018-05-09T00:30:31Z</time>
      </trkpt>
      <trkpt lat="43.74705" lon="4.92341">
        <ele>172</ele>
        <time>2018-05-09T00:31:31Z</time>
      </trkpt>
      <trkpt lat="43.74706" lon="4.9234">
        <ele>172</ele>
        <time>2018-05-09T00:32:31Z</time>
      </trkpt>
      <trkpt lat="43.74713" lon="4.92337">
        <ele>172</ele>
        <time>2018-05-09T00:33:31Z</time>
      </trkpt>
      <trkpt lat="43.74719" lon="4.92338">
        <ele>172</ele>
        <time>2018-05-09T00:34:31Z</time>
      </trkpt>
      <trkpt lat="43.74712" lon="4.92332">
        <ele>172</ele>
        <time>2018-05-09T00:35:31Z</time>
      </trkpt>
      <trkpt lat="43.74709" lon="4.92332">
        <ele>171</ele>
        <time>2018-05-09T00:36:31Z</time>
      </trkpt>
      <trkpt lat="43.74712" lon="4.9233">
        <ele>171</ele>
        <time>2018-05-09T00:37:31Z</time>
      </trkpt>
      <trkpt lat="43.74712" lon="4.92333">
        <ele>172</ele>
        <time>2018-05-09T00:38:31Z</time>
      </trkpt>
      <trkpt lat="43.74718" lon="4.92326">
        <ele>171</ele>
        <time>2018-05-09T00:39:31Z</time>
      </trkpt>
      <trkpt lat="43.74718" lon="4.92325">
        <ele>171</ele>
        <time>2018-05-09T00:40:31Z</time>
      </trkpt>
      <trkpt lat="43.74713" lon="4.92314">
        <ele>170</ele>
        <time>2018-05-09T00:41:31Z</time>
      </trkpt>
      <trkpt lat="43.74702" lon="4.92285">
        <ele>167</ele>
        <time>2018-05-09T00:42:31Z</time>
      </trkpt>
      <trkpt lat="43.74703" lon="4.9225">
        <ele>165</ele>
        <time>2018-05-09T00:43:31Z</time>
      </trkpt>
      <trkpt lat="43.74703" lon="4.92228">
        <ele>163</ele>
        <time>2018-05-09T00:44:31Z</time>
      </trkpt>
      <trkpt lat="43.74705" lon="4.92198">
        <ele>160</ele>
        <time>2018-05-09T00:45:31Z</time>
      </trkpt>
      <trkpt lat="43.74708" lon="4.92197">
        <ele>160</ele>
        <time>2018-05-09T00:46:31Z</time>
      </trkpt>
      <trkpt lat="43.74707" lon="4.92193">
        <ele>159</ele>
        <time>2018-05-09T00:47:31Z</time>
      </trkpt>
      <trkpt lat="43.74707" lon="4.92169">
        <ele>157</ele>
        <time>2018-05-09T00:48:31Z</time>
      </trkpt>
      <trkpt lat="43.74705" lon="4.92127">
        <ele>154</ele>
        <time>2018-05-09T00:49:31Z</time>
      </trkpt>
      <trkpt lat="43.74707" lon="4.92124">
        <ele>153</ele>
        <time>2018-05-09T00:50:31Z</time>
      </trkpt>
      <trkpt lat="43.74711" lon="4.92116">
        <ele>153</ele>
        <time>2018-05-09T00:51:31Z</time>
      </trkpt>
      <trkpt lat="43.74711" lon="4.92112">
        <ele>152</ele>
        <time>2018-05-09T00:52:31Z</time>
      </trkpt>
      <trkpt lat="43.74712" lon="4.92108">
        <ele>152</ele>
        <time>2018-05-09T00:53:31Z</time>
      </trkpt>
      <trkpt lat="43.74711" lon="4.92096">
        <ele>151</ele>
        <time>2018-05-09T00:54:31Z</time>
      </trkpt>
      <trkpt lat="43.7471" lon="4.92093">
        <ele>151</ele>
        <time>2018-05-09T00:55:31Z</time>
      </trkpt>
      <trkpt lat="43.74709" lon="4.92091">
        <ele>151</ele>
        <time>2018-05-09T00:56:31Z</time>
      </trkpt>
      <trkpt lat="43.7468" lon="4.92091">
        <ele>151</ele>
        <time>2018-05-09T00:57:31Z</time>
      </trkpt>
      <trkpt lat="43.74673" lon="4.92092">
        <ele>151</ele>
        <time>2018-05-09T00:58:31Z</time>
      </trkpt>
      <trkpt lat="43.74671" lon="4.92091">
        <ele>151</ele>
        <time>2018-05-09T00:59:31Z</time>
      </trkpt>
      <trkpt lat="43.74667" lon="4.92088">
        <ele>150</ele>
        <time>2018-05-09T01:00:31Z</time>
      </trkpt>
      <trkpt lat="43.74666" lon="4.92086">
        <ele>150</ele>
        <time>2018-05-09T01:01:31Z</time>
      </trkpt>
      <trkpt lat="43.74676" lon="4.92072">
        <ele>150</ele>
        <time>2018-05-09T01:02:31Z</time>
      </trkpt>
      <trkpt lat="43.74732" lon="4.92055">
        <ele>148</ele>
        <time>2018-05-09T01:03:31Z</time>
      </trkpt>
      <trkpt lat="43.748" lon="4.92032">
        <ele>145</ele>
        <time>2018-05-09T01:04:31Z</time>
      </trkpt>
      <trkpt lat="43.74836" lon="4.92037">
        <ele>145</ele>
        <time>2018-05-09T01:05:31Z</time>
      </trkpt>
      <trkpt lat="43.74887" lon="4.9208">
        <ele>143</ele>
        <time>2018-05-09T01:06:31Z</time>
      </trkpt>
      <trkpt lat="43.74939" lon="4.92122">
        <ele>142</ele>
        <time>2018-05-09T01:07:31Z</time>
      </trkpt>
      <trkpt lat="43.74988" lon="4.92144">
        <ele>140</ele>
        <time>2018-05-09T01:08:31Z</time>
      </trkpt>
      <trkpt lat="43.75085" lon="4.92187">
        <ele>136</ele>
        <time>2018-05-09T01:09:31Z</time>
      </trkpt>
      <trkpt lat="43.75109" lon="4.92199">
        <ele>135</ele>
        <time>2018-05-09T01:10:31Z</time>
      </trkpt>
      <trkpt lat="43.75134" lon="4.92209">
        <ele>134</ele>
        <time>2018-05-09T01:11:31Z</time>
      </trkpt>
      <trkpt lat="43.7516" lon="4.92221">
        <ele>133</ele>
        <time>2018-05-09T01:12:31Z</time>
      </trkpt>
      <trkpt lat="43.75194" lon="4.92229">
        <ele>132</ele>
        <time>2018-05-09T01:13:31Z</time>
      </trkpt>
      <trkpt lat="43.7526" lon="4.9226">
        <ele>130</ele>
        <time>2018-05-09T01:14:31Z</time>
      </trkpt>
      <trkpt lat="43.75263" lon="4.92261">
        <ele>130</ele>
        <time>2018-05-09T01:15:31Z</time>
      </trkpt>
      <trkpt lat="43.75266" lon="4.92261">
        <ele>130</ele>
        <time>2018-05-09T01:16:31Z</time>
      </trkpt>
      <trkpt lat="43.75268" lon="4.92263">
        <ele>130</ele>
        <time>2018-05-09T01:17:31Z</time>
      </trkpt>
      <trkpt lat="43.7527" lon="4.92265">
        <ele>130</ele>
        <time>2018-05-09T01:18:31Z</time>
      </trkpt>
      <trkpt lat="43.75271" lon="4.92268">
        <ele>130</ele>
        <time>2018-05-09T01:19:31Z</time>
      </trkpt>
      <trkpt lat="43.75294" lon="4.92302">
        <ele>130</ele>
        <time>2018-05-09T01:20:31Z</time>
      </trkpt>
      <trkpt lat="43.75355" lon="4.9234">
        <ele>128</ele>
        <time>2018-05-09T01:21:31Z</time>
      </trkpt>
      <trkpt lat="43.75415" lon="4.92378">
        <ele>126</ele>
        <time>2018-05-09T01:22:31Z</time>
      </trkpt>
      <trkpt lat="43.75441" lon="4.92392">
        <ele>126</ele>
        <time>2018-05-09T01:23:31Z</time>
      </trkpt>
      <trkpt lat="43.75466" lon="4.92409">
        <ele>126</ele>
        <time>2018-05-09T01:24:31Z</time>
      </trkpt>
      <trkpt lat="43.75487" lon="4.92423">
        <ele>126</ele>
        <time>2018-05-09T01:25:31Z</time>
      </trkpt>
      <trkpt lat="43.75517" lon="4.92441">
        <ele>127</ele>
        <time>2018-05-09T01:26:31Z</time>
      </trkpt>
      <trkpt lat="43.75548" lon="4.92454">
        <ele>128</ele>
        <time>2018-05-09T01:27:31Z</time>
      </trkpt>
      <trkpt lat="43.7558" lon="4.92458">
        <ele>128</ele>
        <time>2018-05-09T01:28:31Z</time>
      </trkpt>
      <trkpt lat="43.75611" lon="4.9246">
        <ele>127</ele>
        <time>2018-05-09T01:29:31Z</time>
      </trkpt>
      <trkpt lat="43.75646" lon="4.92464">
        <ele>126</ele>
        <time>2018-05-09T01:30:31Z</time>
      </trkpt>
      <trkpt lat="43.75654" lon="4.92466">
        <ele>125</ele>
        <time>2018-05-09T01:31:31Z</time>
      </trkpt>
      <trkpt lat="43.75692" lon="4.92475">
        <ele>123</ele>
        <time>2018-05-09T01:32:31Z</time>
      </trkpt>
      <trkpt lat="43.757" lon="4.92492">
        <ele>122</ele>
        <time>2018-05-09T01:33:31Z</time>
      </trkpt>
      <trkpt lat="43.75699" lon="4.92494">
        <ele>122</ele>
        <time>2018-05-09T01:34:31Z</time>
      </trkpt>
      <trkpt lat="43.75697" lon="4.92496">
        <ele>122</ele>
        <time>2018-05-09T01:35:31Z</time>
      </trkpt>
      <trkpt lat="43.75702" lon="4.92511">
        <ele>123</ele>
        <time>2018-05-09T01:36:31Z</time>
      </trkpt>
      <trkpt lat="43.75704" lon="4.92522">
        <ele>124</ele>
        <time>2018-05-09T01:37:31Z</time>
      </trkpt>
      <trkpt lat="43.75704" lon="4.92524">
        <ele>124</ele>
        <time>2018-05-09T01:38:31Z</time>
      </trkpt>
      <trkpt lat="43.75705" lon="4.92529">
        <ele>124</ele>
        <time>2018-05-09T01:39:31Z</time>
      </trkpt>
      <trkpt lat="43.75713" lon="4.92536">
        <ele>124</ele>
        <time>2018-05-09T01:40:31Z</time>
      </trkpt>
      <trkpt lat="43.75719" lon="4.92539">
        <ele>124</ele>
        <time>2018-05-09T01:41:31Z</time>
      </trkpt>
      <trkpt lat="43.75732" lon="4.92548">
        <ele>124</ele>
        <time>2018-05-09T01:42:31Z</time>
      </trkpt>
      <trkpt lat="43.75751" lon="4.92576">
        <ele>124</ele>
        <time>2018-05-09T01:43:31Z</time>
      </trkpt>
      <trkpt lat="43.75767" lon="4.92599">
        <ele>127</ele>
        <time>2018-05-09T01:44:31Z</time>
      </trkpt>
      <trkpt lat="43.75787" lon="4.92628">
        <ele>130</ele>
        <time>2018-05-09T01:45:31Z</time>
      </trkpt>
      <trkpt lat="43.75812" lon="4.92637">
        <ele>129</ele>
        <time>2018-05-09T01:46:31Z</time>
      </trkpt>
      <trkpt lat="43.75815" lon="4.92638">
        <ele>129</ele>
        <time>2018-05-09T01:47:31Z</time>
      </trkpt>
      <trkpt lat="43.75817" lon="4.92639">
        <ele>129</ele>
        <time>2018-05-09T01:48:31Z</time>
      </trkpt>
      <trkpt lat="43.75819" lon="4.9264">
        <ele>129</ele>
        <time>2018-05-09T01:49:31Z</time>
      </trkpt>
      <trkpt lat="43.75822" lon="4.92644">
        <ele>129</ele>
        <time>2018-05-09T01:50:31Z</time>
      </trkpt>
      <trkpt lat="43.75819" lon="4.92659">
        <ele>131</ele>
        <time>2018-05-09T01:51:31Z</time>
      </trkpt>
      <trkpt lat="43.75805" lon="4.92689">
        <ele>133</ele>
        <time>2018-05-09T01:52:31Z</time>
      </trkpt>
      <trkpt lat="43.75802" lon="4.92718">
        <ele>134</ele>
        <time>2018-05-09T01:53:31Z</time>
      </trkpt>
      <trkpt lat="43.75801" lon="4.9275">
        <ele>135</ele>
        <time>2018-05-09T01:54:31Z</time>
      </trkpt>
      <trkpt lat="43.75799" lon="4.92781">
        <ele>135</ele>
        <time>2018-05-09T01:55:31Z</time>
      </trkpt>
      <trkpt lat="43.75798" lon="4.92817">
        <ele>134</ele>
        <time>2018-05-09T01:56:31Z</time>
      </trkpt>
      <trkpt lat="43.75797" lon="4.92879">
        <ele>134</ele>
        <time>2018-05-09T01:57:31Z</time>
      </trkpt>
      <trkpt lat="43.75801" lon="4.92922">
        <ele>133</ele>
        <time>2018-05-09T01:58:31Z</time>
      </trkpt>
      <trkpt lat="43.75804" lon="4.92974">
        <ele>133</ele>
        <time>2018-05-09T01:59:31Z</time>
      </trkpt>
      <trkpt lat="43.75809" lon="4.93009">
        <ele>133</ele>
        <time>2018-05-09T02:00:31Z</time>
      </trkpt>
      <trkpt lat="43.7581" lon="4.93045">
        <ele>134</ele>
        <time>2018-05-09T02:01:31Z</time>
      </trkpt>
      <trkpt lat="43.75824" lon="4.93115">
        <ele>133</ele>
        <time>2018-05-09T02:02:31Z</time>
      </trkpt>
      <trkpt lat="43.75841" lon="4.93182">
        <ele>129</ele>
        <time>2018-05-09T02:03:31Z</time>
      </trkpt>
      <trkpt lat="43.75854" lon="4.93227">
        <ele>125</ele>
        <time>2018-05-09T02:04:31Z</time>
      </trkpt>
      <trkpt lat="43.75894" lon="4.93269">
        <ele>120</ele>
        <time>2018-05-09T02:05:31Z</time>
      </trkpt>
      <trkpt lat="43.75938" lon="4.93302">
        <ele>115</ele>
        <time>2018-05-09T02:06:31Z</time>
      </trkpt>
      <trkpt lat="43.75977" lon="4.93338">
        <ele>112</ele>
        <time>2018-05-09T02:07:31Z</time>
      </trkpt>
      <trkpt lat="43.76019" lon="4.93378">
        <ele>110</ele>
        <time>2018-05-09T02:08:31Z</time>
      </trkpt>
      <trkpt lat="43.76056" lon="4.93408">
        <ele>109</ele>
        <time>2018-05-09T02:09:31Z</time>
      </trkpt>
      <trkpt lat="43.76089" lon="4.93434">
        <ele>109</ele>
        <time>2018-05-09T02:10:31Z</time>
      </trkpt>
      <trkpt lat="43.76114" lon="4.93449">
        <ele>109</ele>
        <time>2018-05-09T02:11:31Z</time>
      </trkpt>
      <trkpt lat="43.76143" lon="4.9345">
        <ele>107</ele>
        <time>2018-05-09T02:12:31Z</time>
      </trkpt>
      <trkpt lat="43.76159" lon="4.93492">
        <ele>107</ele>
        <time>2018-05-09T02:13:31Z</time>
      </trkpt>
      <trkpt lat="43.76183" lon="4.93599">
        <ele>105</ele>
        <time>2018-05-09T02:14:31Z</time>
      </trkpt>
      <trkpt lat="43.76199" lon="4.93682">
        <ele>103</ele>
        <time>2018-05-09T02:15:31Z</time>
      </trkpt>
      <trkpt lat="43.76204" lon="4.93767">
        <ele>102</ele>
        <time>2018-05-09T02:16:31Z</time>
      </trkpt>
      <trkpt lat="43.76208" lon="4.93818">
        <ele>101</ele>
        <time>2018-05-09T02:17:31Z</time>
      </trkpt>
      <trkpt lat="43.76211" lon="4.93852">
        <ele>100</ele>
        <time>2018-05-09T02:18:31Z</time>
      </trkpt>
      <trkpt lat="43.76214" lon="4.93886">
        <ele>100</ele>
        <time>2018-05-09T02:19:31Z</time>
      </trkpt>
      <trkpt lat="43.76224" lon="4.93927">
        <ele>99</ele>
        <time>2018-05-09T02:20:31Z</time>
      </trkpt>
      <trkpt lat="43.76236" lon="4.94009">
        <ele>99</ele>
        <time>2018-05-09T02:21:31Z</time>
      </trkpt>
      <trkpt lat="43.76242" lon="4.94127">
        <ele>100</ele>
        <time>2018-05-09T02:22:31Z</time>
      </trkpt>
      <trkpt lat="43.7625" lon="4.94238">
        <ele>102</ele>
        <time>2018-05-09T02:23:31Z</time>
      </trkpt>
      <trkpt lat="43.76257" lon="4.94307">
        <ele>102</ele>
        <time>2018-05-09T02:24:31Z</time>
      </trkpt>
      <trkpt lat="43.76269" lon="4.94402">
        <ele>103</ele>
        <time>2018-05-09T02:25:31Z</time>
      </trkpt>
      <trkpt lat="43.7627" lon="4.9444">
        <ele>104</ele>
        <time>2018-05-09T02:26:31Z</time>
      </trkpt>
      <trkpt lat="43.76277" lon="4.94499">
        <ele>107</ele>
        <time>2018-05-09T02:27:31Z</time>
      </trkpt>
      <trkpt lat="43.76288" lon="4.94559">
        <ele>111</ele>
        <time>2018-05-09T02:28:31Z</time>
      </trkpt>
      <trkpt lat="43.76295" lon="4.94611">
        <ele>114</ele>
        <time>2018-05-09T02:29:31Z</time>
      </trkpt>
      <trkpt lat="43.76297" lon="4.94644">
        <ele>117</ele>
        <time>2018-05-09T02:30:31Z</time>
      </trkpt>
      <trkpt lat="43.76287" lon="4.94672">
        <ele>118</ele>
        <time>2018-05-09T02:31:31Z</time>
      </trkpt>
      <trkpt lat="43.76265" lon="4.94691">
        <ele>116</ele>
        <time>2018-05-09T02:32:31Z</time>
      </trkpt>
      <trkpt lat="43.7625" lon="4.94712">
        <ele>115</ele>
        <time>2018-05-09T02:33:31Z</time>
      </trkpt>
      <trkpt lat="43.76231" lon="4.94745">
        <ele>115</ele>
        <time>2018-05-09T02:34:31Z</time>
      </trkpt>
      <trkpt lat="43.7622" lon="4.94779">
        <ele>116</ele>
        <time>2018-05-09T02:35:31Z</time>
      </trkpt>
      <trkpt lat="43.76208" lon="4.94814">
        <ele>117</ele>
        <time>2018-05-09T02:36:31Z</time>
      </trkpt>
      <trkpt lat="43.76206" lon="4.94857">
        <ele>118</ele>
        <time>2018-05-09T02:37:31Z</time>
      </trkpt>
      <trkpt lat="43.76206" lon="4.94889">
        <ele>119</ele>
        <time>2018-05-09T02:38:31Z</time>
      </trkpt>
      <trkpt lat="43.76205" lon="4.94891">
        <ele>119</ele>
        <time>2018-05-09T02:39:31Z</time>
      </trkpt>
      <trkpt lat="43.76205" lon="4.94903">
        <ele>119</ele>
        <time>2018-05-09T02:40:31Z</time>
      </trkpt>
      <trkpt lat="43.76215" lon="4.94897">
        <ele>120</ele>
        <time>2018-05-09T02:41:31Z</time>
      </trkpt>
      <trkpt lat="43.76219" lon="4.94896">
        <ele>121</ele>
        <time>2018-05-09T02:42:31Z</time>
      </trkpt>
      <trkpt lat="43.76245" lon="4.94882">
        <ele>123</ele>
        <time>2018-05-09T02:43:31Z</time>
      </trkpt>
      <trkpt lat="43.76271" lon="4.94863">
        <ele>127</ele>
        <time>2018-05-09T02:44:31Z</time>
      </trkpt>
      <trkpt lat="43.76288" lon="4.94845">
        <ele>130</ele>
        <time>2018-05-09T02:45:31Z</time>
      </trkpt>
      <trkpt lat="43.76308" lon="4.94835">
        <ele>133</ele>
        <time>2018-05-09T02:46:31Z</time>
      </trkpt>
      <trkpt lat="43.7633" lon="4.94822">
        <ele>136</ele>
        <time>2018-05-09T02:47:31Z</time>
      </trkpt>
      <trkpt lat="43.76345" lon="4.94805">
        <ele>135</ele>
        <time>2018-05-09T02:48:31Z</time>
      </trkpt>
      <trkpt lat="43.76356" lon="4.94799">
        <ele>133</ele>
        <time>2018-05-09T02:49:31Z</time>
      </trkpt>
      <trkpt lat="43.76375" lon="4.94795">
        <ele>131</ele>
        <time>2018-05-09T02:50:31Z</time>
      </trkpt>
      <trkpt lat="43.76389" lon="4.94806">
        <ele>131</ele>
        <time>2018-05-09T02:51:31Z</time>
      </trkpt>
      <trkpt lat="43.76418" lon="4.94809">
        <ele>128</ele>
        <time>2018-05-09T02:52:31Z</time>
      </trkpt>
      <trkpt lat="43.76447" lon="4.94807">
        <ele>124</ele>
        <time>2018-05-09T02:53:31Z</time>
      </trkpt>
      <trkpt lat="43.76486" lon="4.94817">
        <ele>117</ele>
        <time>2018-05-09T02:54:31Z</time>
      </trkpt>
      <trkpt lat="43.76535" lon="4.9481">
        <ele>113</ele>
        <time>2018-05-09T02:55:31Z</time>
      </trkpt>
      <trkpt lat="43.76592" lon="4.94779">
        <ele>109</ele>
        <time>2018-05-09T02:56:31Z</time>
      </trkpt>
      <trkpt lat="43.76658" lon="4.94748">
        <ele>103</ele>
        <time>2018-05-09T02:57:31Z</time>
      </trkpt>
      <trkpt lat="43.76703" lon="4.94728">
        <ele>100</ele>
        <time>2018-05-09T02:58:31Z</time>
      </trkpt>
      <trkpt lat="43.76748" lon="4.94706">
        <ele>97</ele>
        <time>2018-05-09T02:59:31Z</time>
      </trkpt>
      <trkpt lat="43.7679" lon="4.94695">
        <ele>95</ele>
        <time>2018-05-09T03:00:31Z</time>
      </trkpt>
      <trkpt lat="43.76838" lon="4.94685">
        <ele>94</ele>
        <time>2018-05-09T03:01:31Z</time>
      </trkpt>
      <trkpt lat="43.76955" lon="4.94661">
        <ele>88</ele>
        <time>2018-05-09T03:02:31Z</time>
      </trkpt>
      <trkpt lat="43.77016" lon="4.94653">
        <ele>84</ele>
        <time>2018-05-09T03:03:31Z</time>
      </trkpt>
      <trkpt lat="43.77064" lon="4.94646">
        <ele>82</ele>
        <time>2018-05-09T03:04:31Z</time>
      </trkpt>
      <trkpt lat="43.77106" lon="4.94648">
        <ele>81</ele>
        <time>2018-05-09T03:05:31Z</time>
      </trkpt>
      <trkpt lat="43.77135" lon="4.9465">
        <ele>81</ele>
        <time>2018-05-09T03:06:31Z</time>
      </trkpt>
      <trkpt lat="43.77165" lon="4.94657">
        <ele>81</ele>
        <time>2018-05-09T03:07:31Z</time>
      </trkpt>
      <trkpt lat="43.77167" lon="4.94658">
        <ele>81</ele>
        <time>2018-05-09T03:08:31Z</time>
      </trkpt>
      <trkpt lat="43.77173" lon="4.94676">
        <ele>81</ele>
        <time>2018-05-09T03:09:31Z</time>
      </trkpt>
      <trkpt lat="43.77187" lon="4.94754">
        <ele>80</ele>
        <time>2018-05-09T03:10:31Z</time>
      </trkpt>
      <trkpt lat="43.77194" lon="4.94802">
        <ele>80</ele>
        <time>2018-05-09T03:11:31Z</time>
      </trkpt>
      <trkpt lat="43.77198" lon="4.94854">
        <ele>80</ele>
        <time>2018-05-09T03:12:31Z</time>
      </trkpt>
      <trkpt lat="43.77199" lon="4.94889">
        <ele>79</ele>
        <time>2018-05-09T03:13:31Z</time>
      </trkpt>
      <trkpt lat="43.772" lon="4.94931">
        <ele>79</ele>
        <time>2018-05-09T03:14:31Z</time>
      </trkpt>
      <trkpt lat="43.77199" lon="4.9497">
        <ele>79</ele>
        <time>2018-05-09T03:15:31Z</time>
      </trkpt>
      <trkpt lat="43.77199" lon="4.95012">
        <ele>79</ele>
        <time>2018-05-09T03:16:31Z</time>
      </trkpt>
      <trkpt lat="43.77198" lon="4.95052">
        <ele>79</ele>
        <time>2018-05-09T03:17:31Z</time>
      </trkpt>
      <trkpt lat="43.77197" lon="4.95131">
        <ele>79</ele>
        <time>2018-05-09T03:18:31Z</time>
      </trkpt>
      <trkpt lat="43.77193" lon="4.95169">
        <ele>79</ele>
        <time>2018-05-09T03:19:31Z</time>
      </trkpt>
      <trkpt lat="43.77188" lon="4.95197">
        <ele>79</ele>
        <time>2018-05-09T03:20:31Z</time>
      </trkpt>
      <trkpt lat="43.7718" lon="4.9523">
        <ele>79</ele>
        <time>2018-05-09T03:21:31Z</time>
      </trkpt>
      <trkpt lat="43.77172" lon="4.95268">
        <ele>80</ele>
        <time>2018-05-09T03:22:31Z</time>
      </trkpt>
      <trkpt lat="43.77172" lon="4.95269">
        <ele>80</ele>
        <time>2018-05-09T03:23:31Z</time>
      </trkpt>
      <trkpt lat="43.77173" lon="4.95274">
        <ele>80</ele>
        <time>2018-05-09T03:24:31Z</time>
      </trkpt>
      <trkpt lat="43.77174" lon="4.95276">
        <ele>80</ele>
        <time>2018-05-09T03:25:31Z</time>
      </trkpt>
      <trkpt lat="43.77189" lon="4.95262">
        <ele>79</ele>
        <time>2018-05-09T03:26:31Z</time>
      </trkpt>
      <trkpt lat="43.77215" lon="4.95221">
        <ele>78</ele>
        <time>2018-05-09T03:27:31Z</time>
      </trkpt>
      <trkpt lat="43.77235" lon="4.95231">
        <ele>77</ele>
        <time>2018-05-09T03:28:31Z</time>
      </trkpt>
      <trkpt lat="43.7726" lon="4.95246">
        <ele>76</ele>
        <time>2018-05-09T03:29:31Z</time>
      </trkpt>
      <trkpt lat="43.77293" lon="4.95264">
        <ele>76</ele>
        <time>2018-05-09T03:30:31Z</time>
      </trkpt>
      <trkpt lat="43.77319" lon="4.95287">
        <ele>76</ele>
        <time>2018-05-09T03:31:31Z</time>
      </trkpt>
      <trkpt lat="43.77373" lon="4.95348">
        <ele>75</ele>
        <time>2018-05-09T03:32:31Z</time>
      </trkpt>
      <trkpt lat="43.77421" lon="4.95396">
        <ele>74</ele>
        <time>2018-05-09T03:33:31Z</time>
      </trkpt>
      <trkpt lat="43.7746" lon="4.9544">
        <ele>74</ele>
        <time>2018-05-09T03:34:31Z</time>
      </trkpt>
      <trkpt lat="43.77512" lon="4.95495">
        <ele>75</ele>
        <time>2018-05-09T03:35:31Z</time>
      </trkpt>
      <trkpt lat="43.77553" lon="4.9554">
        <ele>74</ele>
        <time>2018-05-09T03:36:31Z</time>
      </trkpt>
      <trkpt lat="43.77588" lon="4.95604">
        <ele>74</ele>
        <time>2018-05-09T03:37:31Z</time>
      </trkpt>
      <trkpt lat="43.77614" lon="4.95674">
        <ele>73</ele>
        <time>2018-05-09T03:38:31Z</time>
      </trkpt>
      <trkpt lat="43.77636" lon="4.95747">
        <ele>72</ele>
        <time>2018-05-09T03:39:31Z</time>
      </trkpt>
      <trkpt lat="43.77664" lon="4.95849">
        <ele>70</ele>
        <time>2018-05-09T03:40:31Z</time>
      </trkpt>
      <trkpt lat="43.77678" lon="4.95885">
        <ele>71</ele>
        <time>2018-05-09T03:41:31Z</time>
      </trkpt>
      <trkpt lat="43.77712" lon="4.95871">
        <ele>71</ele>
        <time>2018-05-09T03:42:31Z</time>
      </trkpt>
      <trkpt lat="43.77749" lon="4.95856">
        <ele>71</ele>
        <time>2018-05-09T03:43:31Z</time>
      </trkpt>
      <trkpt lat="43.77773" lon="4.95869">
        <ele>71</ele>
        <time>2018-05-09T03:44:31Z</time>
      </trkpt>
      <trkpt lat="43.77806" lon="4.95878">
        <ele>71</ele>
        <time>2018-05-09T03:45:31Z</time>
      </trkpt>
      <trkpt lat="43.77852" lon="4.95892">
        <ele>71</ele>
        <time>2018-05-09T03:46:31Z</time>
      </trkpt>
      <trkpt lat="43.77916" lon="4.95912">
        <ele>71</ele>
        <time>2018-05-09T03:47:31Z</time>
      </trkpt>
      <trkpt lat="43.77959" lon="4.95935">
        <ele>70</ele>
        <time>2018-05-09T03:48:31Z</time>
      </trkpt>
      <trkpt lat="43.77987" lon="4.95986">
        <ele>69</ele>
        <time>2018-05-09T03:49:31Z</time>
      </trkpt>
      <trkpt lat="43.78019" lon="4.96037">
        <ele>69</ele>
        <time>2018-05-09T03:50:31Z</time>
      </trkpt>
      <trkpt lat="43.78046" lon="4.96068">
        <ele>69</ele>
        <time>2018-05-09T03:51:31Z</time>
      </trkpt>
      <trkpt lat="43.78093" lon="4.96119">
        <ele>68</ele>
        <time>2018-05-09T03:52:31Z</time>
      </trkpt>
      <trkpt lat="43.78114" lon="4.96143">
        <ele>68</ele>
        <time>2018-05-09T03:53:31Z</time>
      </trkpt>
      <trkpt lat="43.78136" lon="4.96169">
        <ele>68</ele>
        <time>2018-05-09T03:54:31Z</time>
      </trkpt>
      <trkpt lat="43.78159" lon="4.96197">
        <ele>68</ele>
        <time>2018-05-09T03:55:31Z</time>
      </trkpt>
      <trkpt lat="43.78184" lon="4.96231">
        <ele>67</ele>
        <time>2018-05-09T03:56:31Z</time>
      </trkpt>
      <trkpt lat="43.78207" lon="4.9626">
        <ele>67</ele>
        <time>2018-05-09T03:57:31Z</time>
      </trkpt>
      <trkpt lat="43.78235" lon="4.96268">
        <ele>66</ele>
        <time>2018-05-09T03:58:31Z</time>
      </trkpt>
      <trkpt lat="43.78269" lon="4.96269">
        <ele>65</ele>
        <time>2018-05-09T03:59:31Z</time>
      </trkpt>
      <trkpt lat="43.78301" lon="4.96272">
        <ele>65</ele>
        <time>2018-05-09T04:00:31Z</time>
      </trkpt>
      <trkpt lat="43.78333" lon="4.9627">
        <ele>64</ele>
        <time>2018-05-09T04:01:31Z</time>
      </trkpt>
      <trkpt lat="43.78356" lon="4.9627">
        <ele>64</ele>
        <time>2018-05-09T04:02:31Z</time>
      </trkpt>
      <trkpt lat="43.78386" lon="4.96279">
        <ele>64</ele>
        <time>2018-05-09T04:03:31Z</time>
      </trkpt>
      <trkpt lat="43.78415" lon="4.96296">
        <ele>64</ele>
        <time>2018-05-09T04:04:31Z</time>
      </trkpt>
      <trkpt lat="43.78448" lon="4.96319">
        <ele>64</ele>
        <time>2018-05-09T04:05:31Z</time>
      </trkpt>
      <trkpt lat="43.78468" lon="4.96343">
        <ele>64</ele>
        <time>2018-05-09T04:06:31Z</time>
      </trkpt>
      <trkpt lat="43.78481" lon="4.96338">
        <ele>64</ele>
        <time>2018-05-09T04:07:31Z</time>
      </trkpt>
      <trkpt lat="43.78483" lon="4.96348">
        <ele>64</ele>
        <time>2018-05-09T04:08:31Z</time>
      </trkpt>
      <trkpt lat="43.78483" lon="4.96349">
        <ele>64</ele>
        <time>2018-05-09T04:09:31Z</time>
      </trkpt>
      <trkpt lat="43.78485" lon="4.96351">
        <ele>64</ele>
        <time>2018-05-09T04:10:31Z</time>
      </trkpt>
      <trkpt lat="43.78483" lon="4.96353">
        <ele>64</ele>
        <time>2018-05-09T04:11:31Z</time>
      </trkpt>
      <trkpt lat="43.78483" lon="4.96351">
        <ele>64</ele>
        <time>2018-05-09T04:12:31Z</time>
      </trkpt>
      <trkpt lat="43.78485" lon="4.96351">
        <ele>64</ele>
        <time>2018-05-09T04:13:31Z</time>
      </trkpt>
      <trkpt lat="43.78486" lon="4.96352">
        <ele>64</ele>
        <time>2018-05-09T04:14:31Z</time>
      </trkpt>
      <trkpt lat="43.78487" lon="4.96352">
        <ele>64</ele>
        <time>2018-05-09T04:15:31Z</time>
      </trkpt>
      <trkpt lat="43.78483" lon="4.96351">
        <ele>64</ele>
        <time>2018-05-09T04:16:31Z</time>
      </trkpt>
      <trkpt lat="43.78485" lon="4.96351">
        <ele>64</ele>
        <time>2018-05-09T04:17:31Z</time>
      </trkpt>
      <trkpt lat="43.78483" lon="4.9635">
        <ele>64</ele>
        <time>2018-05-09T04:18:31Z</time>
      </trkpt>
      <trkpt lat="43.78485" lon="4.9635">
        <ele>64</ele>
        <time>2018-05-09T04:19:31Z</time>
      </trkpt>
      <trkpt lat="43.78483" lon="4.96351">
        <ele>64</ele>
        <time>2018-05-09T04:20:31Z</time>
      </trkpt>
      <trkpt lat="43.78483" lon="4.9635">
        <ele>64</ele>
        <time>2018-05-09T04:21:31Z</time>
      </trkpt>
      <trkpt lat="43.78484" lon="4.96348">
        <ele>64</ele>
        <time>2018-05-09T04:22:31Z</time>
      </trkpt>
      <trkpt lat="43.78484" lon="4.96348">
        <ele>64</ele>
        <time>2018-05-09T04:23:31Z</time>
      </trkpt>
      <trkpt lat="43.78481" lon="4.96349">
        <ele>64</ele>
        <time>2018-05-09T04:24:31Z</time>
      </trkpt>
      <trkpt lat="43.78483" lon="4.9635">
        <ele>64</ele>
        <time>2018-05-09T04:25:31Z</time>
      </trkpt>
      <trkpt lat="43.78481" lon="4.9635">
        <ele>64</ele>
        <time>2018-05-09T04:26:31Z</time>
      </trkpt>
      <trkpt lat="43.78482" lon="4.96351">
        <ele>64</ele>
        <time>2018-05-09T04:27:31Z</time>
      </trkpt>
      <trkpt lat="43.78483" lon="4.96348">
        <ele>64</ele>
        <time>2018-05-09T04:28:31Z</time>
      </trkpt>
      <trkpt lat="43.78485" lon="4.96347">
        <ele>64</ele>
        <time>2018-05-09T04:29:31Z</time>
      </trkpt>
      <trkpt lat="43.78486" lon="4.96341">
        <ele>64</ele>
        <time>2018-05-09T04:30:31Z</time>
      </trkpt>
      <trkpt lat="43.78489" lon="4.96334">
        <ele>64</ele>
        <time>2018-05-09T04:31:31Z</time>
      </trkpt>
      <trkpt lat="43.78488" lon="4.96334">
        <ele>64</ele>
        <time>2018-05-09T04:32:31Z</time>
      </trkpt>
      <trkpt lat="43.78482" lon="4.96349">
        <ele>64</ele>
        <time>2018-05-09T04:33:31Z</time>
      </trkpt>
    </trkseg>
  </trk>
</gpx>